<?xml version='1.0' encoding='UTF-8'?>
<gpx version="1.1" creator="https://www.komoot.de" xmlns="http://www.topografix.com/GPX/1/1" xmlns:xsi="http://www.w3.org/2001/XMLSchema-instance" xsi:schemaLocation="http://www.topografix.com/GPX/1/1 http://www.topografix.com/GPX/1/1/gpx.xsd">
  <metadata>
    <name>Highland Perthshire Gravel Trails Aberfeldy Grand Tour</name>
    <author>
      <link href="https://www.komoot.de">
        <text>komoot</text>
        <type>text/html</type>
      </link>
    </author>
  </metadata>
  <trk>
    <name>Highland Perthshire Gravel Trails Aberfeldy Grand Tour</name>
    <trkseg>
      <trkpt lat="56.619678" lon="-3.864767">
        <ele>105.071395</ele>
        <time>2020-03-31T09:04:18.291Z</time>
      </trkpt>
      <trkpt lat="56.619678" lon="-3.864767">
        <ele>105.071395</ele>
        <time>2020-03-31T09:04:18.400Z</time>
      </trkpt>
      <trkpt lat="56.619493" lon="-3.864884">
        <ele>105.071395</ele>
        <time>2020-03-31T09:04:23.310Z</time>
      </trkpt>
      <trkpt lat="56.619370" lon="-3.864961">
        <ele>105.071395</ele>
        <time>2020-03-31T09:04:25.793Z</time>
      </trkpt>
      <trkpt lat="56.619208" lon="-3.865063">
        <ele>105.071395</ele>
        <time>2020-03-31T09:04:30.092Z</time>
      </trkpt>
      <trkpt lat="56.619182" lon="-3.865102">
        <ele>105.071395</ele>
        <time>2020-03-31T09:04:31.469Z</time>
      </trkpt>
      <trkpt lat="56.619111" lon="-3.865413">
        <ele>105.071395</ele>
        <time>2020-03-31T09:04:35.003Z</time>
      </trkpt>
      <trkpt lat="56.619056" lon="-3.865743">
        <ele>105.087310</ele>
        <time>2020-03-31T09:04:40.633Z</time>
      </trkpt>
      <trkpt lat="56.619053" lon="-3.865800">
        <ele>105.161276</ele>
        <time>2020-03-31T09:04:41.254Z</time>
      </trkpt>
      <trkpt lat="56.619043" lon="-3.866046">
        <ele>105.479912</ele>
        <time>2020-03-31T09:04:44.380Z</time>
      </trkpt>
      <trkpt lat="56.619045" lon="-3.866321">
        <ele>105.835175</ele>
        <time>2020-03-31T09:04:49.516Z</time>
      </trkpt>
      <trkpt lat="56.619102" lon="-3.867010">
        <ele>106.735195</ele>
        <time>2020-03-31T09:05:01.547Z</time>
      </trkpt>
      <trkpt lat="56.619112" lon="-3.867246">
        <ele>107.040950</ele>
        <time>2020-03-31T09:05:04.768Z</time>
      </trkpt>
      <trkpt lat="56.619114" lon="-3.867427">
        <ele>107.274804</ele>
        <time>2020-03-31T09:05:07.302Z</time>
      </trkpt>
      <trkpt lat="56.619111" lon="-3.867614">
        <ele>107.516463</ele>
        <time>2020-03-31T09:05:10.230Z</time>
      </trkpt>
      <trkpt lat="56.619093" lon="-3.867846">
        <ele>107.819114</ele>
        <time>2020-03-31T09:05:13.141Z</time>
      </trkpt>
      <trkpt lat="56.618996" lon="-3.868430">
        <ele>108.607121</ele>
        <time>2020-03-31T09:05:22.977Z</time>
      </trkpt>
      <trkpt lat="56.618719" lon="-3.868282">
        <ele>109.284972</ele>
        <time>2020-03-31T09:05:33.587Z</time>
      </trkpt>
      <trkpt lat="56.617883" lon="-3.867828">
        <ele>114.513463</ele>
        <time>2020-03-31T09:06:14.106Z</time>
      </trkpt>
      <trkpt lat="56.617740" lon="-3.867770">
        <ele>115.393869</ele>
        <time>2020-03-31T09:06:21.595Z</time>
      </trkpt>
      <trkpt lat="56.617532" lon="-3.867685">
        <ele>116.674920</ele>
        <time>2020-03-31T09:06:32.361Z</time>
      </trkpt>
      <trkpt lat="56.616730" lon="-3.867408">
        <ele>121.966084</ele>
        <time>2020-03-31T09:07:19.012Z</time>
      </trkpt>
      <trkpt lat="56.616542" lon="-3.867522">
        <ele>123.467769</ele>
        <time>2020-03-31T09:07:32.857Z</time>
      </trkpt>
      <trkpt lat="56.616427" lon="-3.867512">
        <ele>124.340127</ele>
        <time>2020-03-31T09:07:40.908Z</time>
      </trkpt>
      <trkpt lat="56.616340" lon="-3.867504">
        <ele>125.000173</ele>
        <time>2020-03-31T09:07:46.976Z</time>
      </trkpt>
      <trkpt lat="56.615948" lon="-3.867120">
        <ele>128.374381</ele>
        <time>2020-03-31T09:08:18.074Z</time>
      </trkpt>
      <trkpt lat="56.615904" lon="-3.867104">
        <ele>128.714379</ele>
        <time>2020-03-31T09:08:21.232Z</time>
      </trkpt>
      <trkpt lat="56.615691" lon="-3.867173">
        <ele>130.353731</ele>
        <time>2020-03-31T09:08:36.290Z</time>
      </trkpt>
      <trkpt lat="56.615664" lon="-3.867172">
        <ele>130.558354</ele>
        <time>2020-03-31T09:08:38.176Z</time>
      </trkpt>
      <trkpt lat="56.615479" lon="-3.867163">
        <ele>131.960610</ele>
        <time>2020-03-31T09:08:51.126Z</time>
      </trkpt>
      <trkpt lat="56.615139" lon="-3.866973">
        <ele>134.700380</ele>
        <time>2020-03-31T09:09:15.919Z</time>
      </trkpt>
      <trkpt lat="56.614663" lon="-3.866956">
        <ele>138.481323</ele>
        <time>2020-03-31T09:09:49.112Z</time>
      </trkpt>
      <trkpt lat="56.614168" lon="-3.866937">
        <ele>142.413304</ele>
        <time>2020-03-31T09:10:23.677Z</time>
      </trkpt>
      <trkpt lat="56.614091" lon="-3.866892">
        <ele>143.055652</ele>
        <time>2020-03-31T09:10:29.350Z</time>
      </trkpt>
      <trkpt lat="56.613851" lon="-3.866937">
        <ele>144.971760</ele>
        <time>2020-03-31T09:10:46.166Z</time>
      </trkpt>
      <trkpt lat="56.613611" lon="-3.867013">
        <ele>146.906471</ele>
        <time>2020-03-31T09:11:03.171Z</time>
      </trkpt>
      <trkpt lat="56.613494" lon="-3.866988">
        <ele>147.842042</ele>
        <time>2020-03-31T09:11:11.390Z</time>
      </trkpt>
      <trkpt lat="56.613017" lon="-3.867293">
        <ele>151.851456</ele>
        <time>2020-03-31T09:11:46.661Z</time>
      </trkpt>
      <trkpt lat="56.612721" lon="-3.867445">
        <ele>154.290164</ele>
        <time>2020-03-31T09:12:08.159Z</time>
      </trkpt>
      <trkpt lat="56.612015" lon="-3.868095">
        <ele>160.565043</ele>
        <time>2020-03-31T09:13:03.409Z</time>
      </trkpt>
      <trkpt lat="56.611605" lon="-3.868327">
        <ele>163.865748</ele>
        <time>2020-03-31T09:13:33.359Z</time>
      </trkpt>
      <trkpt lat="56.610989" lon="-3.868205">
        <ele>168.477378</ele>
        <time>2020-03-31T09:14:16.571Z</time>
      </trkpt>
      <trkpt lat="56.610388" lon="-3.868342">
        <ele>172.985282</ele>
        <time>2020-03-31T09:14:58.800Z</time>
      </trkpt>
      <trkpt lat="56.610051" lon="-3.868624">
        <ele>175.762704</ele>
        <time>2020-03-31T09:15:24.703Z</time>
      </trkpt>
      <trkpt lat="56.609811" lon="-3.869098">
        <ele>178.900347</ele>
        <time>2020-03-31T09:15:49.438Z</time>
      </trkpt>
      <trkpt lat="56.609479" lon="-3.869535">
        <ele>182.529149</ele>
        <time>2020-03-31T09:16:18.078Z</time>
      </trkpt>
      <trkpt lat="56.609352" lon="-3.869578">
        <ele>183.672664</ele>
        <time>2020-03-31T09:16:27.092Z</time>
      </trkpt>
      <trkpt lat="56.608999" lon="-3.869900">
        <ele>187.168949</ele>
        <time>2020-03-31T09:16:54.666Z</time>
      </trkpt>
      <trkpt lat="56.608407" lon="-3.870814">
        <ele>195.260850</ele>
        <time>2020-03-31T09:17:48.999Z</time>
      </trkpt>
      <trkpt lat="56.608171" lon="-3.871022">
        <ele>198.728269</ele>
        <time>2020-03-31T09:18:07.400Z</time>
      </trkpt>
      <trkpt lat="56.607559" lon="-3.871056">
        <ele>206.822302</ele>
        <time>2020-03-31T09:18:50.285Z</time>
      </trkpt>
      <trkpt lat="56.607149" lon="-3.871223">
        <ele>212.376763</ele>
        <time>2020-03-31T09:19:19.799Z</time>
      </trkpt>
      <trkpt lat="56.606683" lon="-3.871764">
        <ele>221.032275</ele>
        <time>2020-03-31T09:19:58.747Z</time>
      </trkpt>
      <trkpt lat="56.606601" lon="-3.871732">
        <ele>222.485561</ele>
        <time>2020-03-31T09:20:04.615Z</time>
      </trkpt>
      <trkpt lat="56.606424" lon="-3.871863">
        <ele>225.797283</ele>
        <time>2020-03-31T09:20:18.068Z</time>
      </trkpt>
      <trkpt lat="56.606026" lon="-3.871908">
        <ele>232.707097</ele>
        <time>2020-03-31T09:20:46.199Z</time>
      </trkpt>
      <trkpt lat="56.605998" lon="-3.871879">
        <ele>233.265571</ele>
        <time>2020-03-31T09:20:48.503Z</time>
      </trkpt>
      <trkpt lat="56.605750" lon="-3.871614">
        <ele>238.250976</ele>
        <time>2020-03-31T09:21:08.755Z</time>
      </trkpt>
      <trkpt lat="56.605470" lon="-3.871632">
        <ele>243.105802</ele>
        <time>2020-03-31T09:21:28.524Z</time>
      </trkpt>
      <trkpt lat="56.605305" lon="-3.871547">
        <ele>246.077600</ele>
        <time>2020-03-31T09:21:40.616Z</time>
      </trkpt>
      <trkpt lat="56.605169" lon="-3.871616">
        <ele>248.281113</ele>
        <time>2020-03-31T09:21:50.596Z</time>
      </trkpt>
      <trkpt lat="56.605080" lon="-3.871496">
        <ele>249.967866</ele>
        <time>2020-03-31T09:21:58.423Z</time>
      </trkpt>
      <trkpt lat="56.604899" lon="-3.871438">
        <ele>252.765056</ele>
        <time>2020-03-31T09:22:11.358Z</time>
      </trkpt>
      <trkpt lat="56.604695" lon="-3.871545">
        <ele>255.996562</ele>
        <time>2020-03-31T09:22:26.293Z</time>
      </trkpt>
      <trkpt lat="56.603728" lon="-3.871475">
        <ele>270.725191</ele>
        <time>2020-03-31T09:23:34.277Z</time>
      </trkpt>
      <trkpt lat="56.603252" lon="-3.871711">
        <ele>276.539355</ele>
        <time>2020-03-31T09:24:08.791Z</time>
      </trkpt>
      <trkpt lat="56.603097" lon="-3.871999">
        <ele>278.594178</ele>
        <time>2020-03-31T09:24:24.321Z</time>
      </trkpt>
      <trkpt lat="56.603024" lon="-3.872217">
        <ele>279.895933</ele>
        <time>2020-03-31T09:24:34.181Z</time>
      </trkpt>
      <trkpt lat="56.603000" lon="-3.872304">
        <ele>280.392382</ele>
        <time>2020-03-31T09:24:38.093Z</time>
      </trkpt>
      <trkpt lat="56.602824" lon="-3.872990">
        <ele>284.253493</ele>
        <time>2020-03-31T09:25:09.311Z</time>
      </trkpt>
      <trkpt lat="56.602664" lon="-3.873557">
        <ele>287.504017</ele>
        <time>2020-03-31T09:25:34.747Z</time>
      </trkpt>
      <trkpt lat="56.602821" lon="-3.873489">
        <ele>288.999886</ele>
        <time>2020-03-31T09:25:46.384Z</time>
      </trkpt>
      <trkpt lat="56.603223" lon="-3.873562">
        <ele>291.167121</ele>
        <time>2020-03-31T09:26:11.921Z</time>
      </trkpt>
      <trkpt lat="56.603330" lon="-3.873685">
        <ele>291.489634</ele>
        <time>2020-03-31T09:26:18.846Z</time>
      </trkpt>
      <trkpt lat="56.603520" lon="-3.874221">
        <ele>292.383453</ele>
        <time>2020-03-31T09:26:35.513Z</time>
      </trkpt>
      <trkpt lat="56.603574" lon="-3.874407">
        <ele>292.678273</ele>
        <time>2020-03-31T09:26:41.550Z</time>
      </trkpt>
      <trkpt lat="56.603780" lon="-3.875114">
        <ele>293.799789</ele>
        <time>2020-03-31T09:26:58.614Z</time>
      </trkpt>
      <trkpt lat="56.603731" lon="-3.875127">
        <ele>293.925920</ele>
        <time>2020-03-31T09:26:59.386Z</time>
      </trkpt>
      <trkpt lat="56.603265" lon="-3.875407">
        <ele>295.139306</ele>
        <time>2020-03-31T09:27:10.046Z</time>
      </trkpt>
      <trkpt lat="56.602899" lon="-3.875627">
        <ele>294.696283</ele>
        <time>2020-03-31T09:27:17.405Z</time>
      </trkpt>
      <trkpt lat="56.602823" lon="-3.875678">
        <ele>294.603178</ele>
        <time>2020-03-31T09:27:19.154Z</time>
      </trkpt>
      <trkpt lat="56.602715" lon="-3.875749">
        <ele>294.471191</ele>
        <time>2020-03-31T09:27:20.881Z</time>
      </trkpt>
      <trkpt lat="56.601661" lon="-3.876403">
        <ele>293.191257</ele>
        <time>2020-03-31T09:27:39.505Z</time>
      </trkpt>
      <trkpt lat="56.600991" lon="-3.877546">
        <ele>293.731164</ele>
        <time>2020-03-31T09:27:57.500Z</time>
      </trkpt>
      <trkpt lat="56.600915" lon="-3.877690">
        <ele>293.817275</ele>
        <time>2020-03-31T09:28:00.473Z</time>
      </trkpt>
      <trkpt lat="56.600793" lon="-3.877921">
        <ele>293.955456</ele>
        <time>2020-03-31T09:28:05.008Z</time>
      </trkpt>
      <trkpt lat="56.600643" lon="-3.878292">
        <ele>294.154153</ele>
        <time>2020-03-31T09:28:12.025Z</time>
      </trkpt>
      <trkpt lat="56.600146" lon="-3.879998">
        <ele>296.351329</ele>
        <time>2020-03-31T09:28:46.730Z</time>
      </trkpt>
      <trkpt lat="56.599951" lon="-3.880480">
        <ele>297.323721</ele>
        <time>2020-03-31T09:28:58.507Z</time>
      </trkpt>
      <trkpt lat="56.598953" lon="-3.881725">
        <ele>301.097741</ele>
        <time>2020-03-31T09:29:43.310Z</time>
      </trkpt>
      <trkpt lat="56.598124" lon="-3.882932">
        <ele>304.805756</ele>
        <time>2020-03-31T09:30:23.955Z</time>
      </trkpt>
      <trkpt lat="56.597949" lon="-3.883216">
        <ele>305.624779</ele>
        <time>2020-03-31T09:30:32.554Z</time>
      </trkpt>
      <trkpt lat="56.597279" lon="-3.884718">
        <ele>309.378175</ele>
        <time>2020-03-31T09:31:12.717Z</time>
      </trkpt>
      <trkpt lat="56.597265" lon="-3.884823">
        <ele>309.588242</ele>
        <time>2020-03-31T09:31:15.745Z</time>
      </trkpt>
      <trkpt lat="56.597187" lon="-3.884821">
        <ele>309.863764</ele>
        <time>2020-03-31T09:31:19.525Z</time>
      </trkpt>
      <trkpt lat="56.596513" lon="-3.885477">
        <ele>312.562185</ele>
        <time>2020-03-31T09:31:56.823Z</time>
      </trkpt>
      <trkpt lat="56.596381" lon="-3.885705">
        <ele>313.193878</ele>
        <time>2020-03-31T09:32:05.344Z</time>
      </trkpt>
      <trkpt lat="56.596189" lon="-3.886327">
        <ele>314.555341</ele>
        <time>2020-03-31T09:32:25.514Z</time>
      </trkpt>
      <trkpt lat="56.595153" lon="-3.888113">
        <ele>319.320229</ele>
        <time>2020-03-31T09:33:35.739Z</time>
      </trkpt>
      <trkpt lat="56.595393" lon="-3.888997">
        <ele>320.777414</ele>
        <time>2020-03-31T09:34:00.869Z</time>
      </trkpt>
      <trkpt lat="56.595504" lon="-3.889224">
        <ele>321.226272</ele>
        <time>2020-03-31T09:34:09.446Z</time>
      </trkpt>
      <trkpt lat="56.595429" lon="-3.889334">
        <ele>321.485133</ele>
        <time>2020-03-31T09:34:13.176Z</time>
      </trkpt>
      <trkpt lat="56.595577" lon="-3.889986">
        <ele>322.527770</ele>
        <time>2020-03-31T09:34:30.666Z</time>
      </trkpt>
      <trkpt lat="56.594124" lon="-3.894604">
        <ele>328.434608</ele>
        <time>2020-03-31T09:36:30.295Z</time>
      </trkpt>
      <trkpt lat="56.593958" lon="-3.894932">
        <ele>328.953287</ele>
        <time>2020-03-31T09:36:40.450Z</time>
      </trkpt>
      <trkpt lat="56.591997" lon="-3.897518">
        <ele>334.812751</ele>
        <time>2020-03-31T09:38:27.515Z</time>
      </trkpt>
      <trkpt lat="56.591846" lon="-3.897823">
        <ele>335.446454</ele>
        <time>2020-03-31T09:38:38.189Z</time>
      </trkpt>
      <trkpt lat="56.591549" lon="-3.898942">
        <ele>337.788610</ele>
        <time>2020-03-31T09:39:10.899Z</time>
      </trkpt>
      <trkpt lat="56.590958" lon="-3.900385">
        <ele>341.179500</ele>
        <time>2020-03-31T09:40:00.321Z</time>
      </trkpt>
      <trkpt lat="56.590881" lon="-3.901326">
        <ele>343.326087</ele>
        <time>2020-03-31T09:40:27.219Z</time>
      </trkpt>
      <trkpt lat="56.590727" lon="-3.901765">
        <ele>344.525986</ele>
        <time>2020-03-31T09:40:42.169Z</time>
      </trkpt>
      <trkpt lat="56.590331" lon="-3.902231">
        <ele>346.501455</ele>
        <time>2020-03-31T09:41:07.220Z</time>
      </trkpt>
      <trkpt lat="56.589734" lon="-3.902702">
        <ele>349.247803</ele>
        <time>2020-03-31T09:41:42.420Z</time>
      </trkpt>
      <trkpt lat="56.589500" lon="-3.903097">
        <ele>350.677800</ele>
        <time>2020-03-31T09:42:00.019Z</time>
      </trkpt>
      <trkpt lat="56.589225" lon="-3.903419">
        <ele>352.142404</ele>
        <time>2020-03-31T09:42:18.101Z</time>
      </trkpt>
      <trkpt lat="56.589099" lon="-3.903611">
        <ele>352.878633</ele>
        <time>2020-03-31T09:42:27.185Z</time>
      </trkpt>
      <trkpt lat="56.588649" lon="-3.905355">
        <ele>357.499244</ele>
        <time>2020-03-31T09:43:24.674Z</time>
      </trkpt>
      <trkpt lat="56.588423" lon="-3.905708">
        <ele>358.576624</ele>
        <time>2020-03-31T09:43:40.271Z</time>
      </trkpt>
      <trkpt lat="56.587928" lon="-3.906081">
        <ele>360.513575</ele>
        <time>2020-03-31T09:44:07.385Z</time>
      </trkpt>
      <trkpt lat="56.587711" lon="-3.906543">
        <ele>361.722110</ele>
        <time>2020-03-31T09:44:23.764Z</time>
      </trkpt>
      <trkpt lat="56.587274" lon="-3.907135">
        <ele>363.630944</ele>
        <time>2020-03-31T09:44:49.593Z</time>
      </trkpt>
      <trkpt lat="56.586135" lon="-3.908138">
        <ele>366.940456</ele>
        <time>2020-03-31T09:45:45.873Z</time>
      </trkpt>
      <trkpt lat="56.585317" lon="-3.910030">
        <ele>370.679370</ele>
        <time>2020-03-31T09:46:44.836Z</time>
      </trkpt>
      <trkpt lat="56.584637" lon="-3.910784">
        <ele>373.019798</ele>
        <time>2020-03-31T09:47:22.681Z</time>
      </trkpt>
      <trkpt lat="56.584393" lon="-3.911205">
        <ele>374.222905</ele>
        <time>2020-03-31T09:47:39.406Z</time>
      </trkpt>
      <trkpt lat="56.584273" lon="-3.911582">
        <ele>375.200494</ele>
        <time>2020-03-31T09:47:51.578Z</time>
      </trkpt>
      <trkpt lat="56.582983" lon="-3.913395">
        <ele>381.928284</ele>
        <time>2020-03-31T09:49:18.199Z</time>
      </trkpt>
      <trkpt lat="56.582791" lon="-3.913872">
        <ele>383.351776</ele>
        <time>2020-03-31T09:49:35.868Z</time>
      </trkpt>
      <trkpt lat="56.582054" lon="-3.914705">
        <ele>387.149642</ele>
        <time>2020-03-31T09:50:22.859Z</time>
      </trkpt>
      <trkpt lat="56.581828" lon="-3.915122">
        <ele>388.559254</ele>
        <time>2020-03-31T09:50:40.249Z</time>
      </trkpt>
      <trkpt lat="56.580645" lon="-3.916836">
        <ele>394.836072</ele>
        <time>2020-03-31T09:52:00.272Z</time>
      </trkpt>
      <trkpt lat="56.580278" lon="-3.917463">
        <ele>396.836767</ele>
        <time>2020-03-31T09:52:26.079Z</time>
      </trkpt>
      <trkpt lat="56.579708" lon="-3.917730">
        <ele>399.013886</ele>
        <time>2020-03-31T09:52:55.952Z</time>
      </trkpt>
      <trkpt lat="56.579285" lon="-3.917815">
        <ele>400.587864</ele>
        <time>2020-03-31T09:53:17.257Z</time>
      </trkpt>
      <trkpt lat="56.578556" lon="-3.918373">
        <ele>403.513168</ele>
        <time>2020-03-31T09:53:56.546Z</time>
      </trkpt>
      <trkpt lat="56.578031" lon="-3.919357">
        <ele>406.301470</ele>
        <time>2020-03-31T09:54:33.630Z</time>
      </trkpt>
      <trkpt lat="56.577745" lon="-3.920164">
        <ele>408.254618</ele>
        <time>2020-03-31T09:55:00.801Z</time>
      </trkpt>
      <trkpt lat="56.577606" lon="-3.920999">
        <ele>410.058400</ele>
        <time>2020-03-31T09:55:25.667Z</time>
      </trkpt>
      <trkpt lat="56.577457" lon="-3.921494">
        <ele>411.258900</ele>
        <time>2020-03-31T09:55:41.476Z</time>
      </trkpt>
      <trkpt lat="56.577232" lon="-3.921717">
        <ele>412.249354</ele>
        <time>2020-03-31T09:55:54.536Z</time>
      </trkpt>
      <trkpt lat="56.577034" lon="-3.921840">
        <ele>413.057926</ele>
        <time>2020-03-31T09:56:05.451Z</time>
      </trkpt>
      <trkpt lat="56.576512" lon="-3.921994">
        <ele>415.101268</ele>
        <time>2020-03-31T09:56:32.231Z</time>
      </trkpt>
      <trkpt lat="56.576196" lon="-3.921999">
        <ele>416.322264</ele>
        <time>2020-03-31T09:56:48.552Z</time>
      </trkpt>
      <trkpt lat="56.575161" lon="-3.922355">
        <ele>420.355224</ele>
        <time>2020-03-31T09:57:42.451Z</time>
      </trkpt>
      <trkpt lat="56.574465" lon="-3.921880">
        <ele>423.201679</ele>
        <time>2020-03-31T09:58:19.731Z</time>
      </trkpt>
      <trkpt lat="56.573919" lon="-3.921756">
        <ele>425.813626</ele>
        <time>2020-03-31T09:58:48.239Z</time>
      </trkpt>
      <trkpt lat="56.573373" lon="-3.921789">
        <ele>428.417030</ele>
        <time>2020-03-31T09:59:17.995Z</time>
      </trkpt>
      <trkpt lat="56.573272" lon="-3.921823">
        <ele>428.906551</ele>
        <time>2020-03-31T09:59:23.824Z</time>
      </trkpt>
      <trkpt lat="56.572779" lon="-3.922374">
        <ele>431.665524</ele>
        <time>2020-03-31T09:59:57.884Z</time>
      </trkpt>
      <trkpt lat="56.572281" lon="-3.922729">
        <ele>435.473859</ele>
        <time>2020-03-31T10:00:31.442Z</time>
      </trkpt>
      <trkpt lat="56.572073" lon="-3.923009">
        <ele>437.355089</ele>
        <time>2020-03-31T10:00:48.558Z</time>
      </trkpt>
      <trkpt lat="56.571963" lon="-3.923395">
        <ele>439.094344</ele>
        <time>2020-03-31T10:01:04.995Z</time>
      </trkpt>
      <trkpt lat="56.571787" lon="-3.924812">
        <ele>444.909969</ele>
        <time>2020-03-31T10:02:03.241Z</time>
      </trkpt>
      <trkpt lat="56.571938" lon="-3.925603">
        <ele>448.560630</ele>
        <time>2020-03-31T10:02:37.776Z</time>
      </trkpt>
      <trkpt lat="56.571766" lon="-3.926591">
        <ele>453.079161</ele>
        <time>2020-03-31T10:03:20.095Z</time>
      </trkpt>
      <trkpt lat="56.572076" lon="-3.927070">
        <ele>456.301762</ele>
        <time>2020-03-31T10:03:49.790Z</time>
      </trkpt>
      <trkpt lat="56.572185" lon="-3.927338">
        <ele>457.754467</ele>
        <time>2020-03-31T10:04:03.176Z</time>
      </trkpt>
      <trkpt lat="56.572915" lon="-3.929990">
        <ele>466.770851</ele>
        <time>2020-03-31T10:05:44.350Z</time>
      </trkpt>
      <trkpt lat="56.573027" lon="-3.932011">
        <ele>468.768450</ele>
        <time>2020-03-31T10:06:31.314Z</time>
      </trkpt>
      <trkpt lat="56.572843" lon="-3.932562">
        <ele>468.871771</ele>
        <time>2020-03-31T10:06:42.531Z</time>
      </trkpt>
      <trkpt lat="56.573317" lon="-3.935259">
        <ele>467.318317</ele>
        <time>2020-03-31T10:07:25.221Z</time>
      </trkpt>
      <trkpt lat="56.573306" lon="-3.935566">
        <ele>466.988279</ele>
        <time>2020-03-31T10:07:29.726Z</time>
      </trkpt>
      <trkpt lat="56.573207" lon="-3.935840">
        <ele>466.636751</ele>
        <time>2020-03-31T10:07:34.625Z</time>
      </trkpt>
      <trkpt lat="56.573066" lon="-3.936074">
        <ele>466.264710</ele>
        <time>2020-03-31T10:07:39.779Z</time>
      </trkpt>
      <trkpt lat="56.571434" lon="-3.937429">
        <ele>464.463501</ele>
        <time>2020-03-31T10:08:31.775Z</time>
      </trkpt>
      <trkpt lat="56.570751" lon="-3.938299">
        <ele>464.787711</ele>
        <time>2020-03-31T10:09:00.668Z</time>
      </trkpt>
      <trkpt lat="56.570383" lon="-3.938406">
        <ele>465.267003</ele>
        <time>2020-03-31T10:09:14.529Z</time>
      </trkpt>
      <trkpt lat="56.569806" lon="-3.938387">
        <ele>466.009163</ele>
        <time>2020-03-31T10:09:37.429Z</time>
      </trkpt>
      <trkpt lat="56.568944" lon="-3.938735">
        <ele>467.919831</ele>
        <time>2020-03-31T10:10:14.905Z</time>
      </trkpt>
      <trkpt lat="56.567821" lon="-3.939686">
        <ele>471.420235</ele>
        <time>2020-03-31T10:11:12.993Z</time>
      </trkpt>
      <trkpt lat="56.567702" lon="-3.939920">
        <ele>472.057032</ele>
        <time>2020-03-31T10:11:21.764Z</time>
      </trkpt>
      <trkpt lat="56.567336" lon="-3.940944">
        <ele>474.749885</ele>
        <time>2020-03-31T10:11:56.556Z</time>
      </trkpt>
      <trkpt lat="56.567191" lon="-3.941672">
        <ele>476.457711</ele>
        <time>2020-03-31T10:12:19.217Z</time>
      </trkpt>
      <trkpt lat="56.567065" lon="-3.942347">
        <ele>478.030036</ele>
        <time>2020-03-31T10:12:40.324Z</time>
      </trkpt>
      <trkpt lat="56.567072" lon="-3.943566">
        <ele>480.479016</ele>
        <time>2020-03-31T10:13:16.041Z</time>
      </trkpt>
      <trkpt lat="56.566835" lon="-3.944396">
        <ele>482.285723</ele>
        <time>2020-03-31T10:13:42.266Z</time>
      </trkpt>
      <trkpt lat="56.566785" lon="-3.944875">
        <ele>483.227923</ele>
        <time>2020-03-31T10:13:55.434Z</time>
      </trkpt>
      <trkpt lat="56.566816" lon="-3.945205">
        <ele>483.874897</ele>
        <time>2020-03-31T10:14:04.163Z</time>
      </trkpt>
      <trkpt lat="56.566782" lon="-3.945536">
        <ele>484.525622</ele>
        <time>2020-03-31T10:14:12.773Z</time>
      </trkpt>
      <trkpt lat="56.566386" lon="-3.946506">
        <ele>485.791171</ele>
        <time>2020-03-31T10:14:41.589Z</time>
      </trkpt>
      <trkpt lat="56.566286" lon="-3.947311">
        <ele>486.423877</ele>
        <time>2020-03-31T10:14:59.773Z</time>
      </trkpt>
      <trkpt lat="56.566175" lon="-3.947384">
        <ele>486.588171</ele>
        <time>2020-03-31T10:15:04.265Z</time>
      </trkpt>
      <trkpt lat="56.565962" lon="-3.947280">
        <ele>486.895118</ele>
        <time>2020-03-31T10:15:12.408Z</time>
      </trkpt>
      <trkpt lat="56.565157" lon="-3.946666">
        <ele>487.423503</ele>
        <time>2020-03-31T10:15:41.808Z</time>
      </trkpt>
      <trkpt lat="56.565003" lon="-3.946751">
        <ele>487.350652</ele>
        <time>2020-03-31T10:15:46.833Z</time>
      </trkpt>
      <trkpt lat="56.564903" lon="-3.946983">
        <ele>487.277198</ele>
        <time>2020-03-31T10:15:51.861Z</time>
      </trkpt>
      <trkpt lat="56.564783" lon="-3.947642">
        <ele>487.104120</ele>
        <time>2020-03-31T10:16:03.477Z</time>
      </trkpt>
      <trkpt lat="56.564518" lon="-3.948158">
        <ele>486.928215</ele>
        <time>2020-03-31T10:16:14.980Z</time>
      </trkpt>
      <trkpt lat="56.564419" lon="-3.949138">
        <ele>486.441521</ele>
        <time>2020-03-31T10:16:30.943Z</time>
      </trkpt>
      <trkpt lat="56.564471" lon="-3.949965">
        <ele>485.730593</ele>
        <time>2020-03-31T10:16:44.123Z</time>
      </trkpt>
      <trkpt lat="56.564452" lon="-3.950242">
        <ele>485.492180</ele>
        <time>2020-03-31T10:16:48.528Z</time>
      </trkpt>
      <trkpt lat="56.564841" lon="-3.951304">
        <ele>484.402987</ele>
        <time>2020-03-31T10:17:08.265Z</time>
      </trkpt>
      <trkpt lat="56.565102" lon="-3.952531">
        <ele>482.752428</ele>
        <time>2020-03-31T10:17:28.068Z</time>
      </trkpt>
      <trkpt lat="56.565176" lon="-3.953122">
        <ele>481.850580</ele>
        <time>2020-03-31T10:17:37.067Z</time>
      </trkpt>
      <trkpt lat="56.565552" lon="-3.953293">
        <ele>480.803738</ele>
        <time>2020-03-31T10:17:43.227Z</time>
      </trkpt>
      <trkpt lat="56.569099" lon="-3.956314">
        <ele>466.727313</ele>
        <time>2020-03-31T10:18:42.545Z</time>
      </trkpt>
      <trkpt lat="56.569368" lon="-3.956709">
        <ele>465.146985</ele>
        <time>2020-03-31T10:18:47.427Z</time>
      </trkpt>
      <trkpt lat="56.573067" lon="-3.963535">
        <ele>425.545203</ele>
        <time>2020-03-31T10:19:57.575Z</time>
      </trkpt>
      <trkpt lat="56.573387" lon="-3.964125">
        <ele>421.045199</ele>
        <time>2020-03-31T10:20:03.495Z</time>
      </trkpt>
      <trkpt lat="56.574788" lon="-3.966674">
        <ele>399.608393</ele>
        <time>2020-03-31T10:20:28.490Z</time>
      </trkpt>
      <trkpt lat="56.575170" lon="-3.967369">
        <ele>393.019436</ele>
        <time>2020-03-31T10:20:35.164Z</time>
      </trkpt>
      <trkpt lat="56.575387" lon="-3.967670">
        <ele>389.692285</ele>
        <time>2020-03-31T10:20:38.538Z</time>
      </trkpt>
      <trkpt lat="56.576616" lon="-3.968743">
        <ele>373.368846</ele>
        <time>2020-03-31T10:20:55.335Z</time>
      </trkpt>
      <trkpt lat="56.576768" lon="-3.968983">
        <ele>370.976561</ele>
        <time>2020-03-31T10:20:57.868Z</time>
      </trkpt>
      <trkpt lat="56.576839" lon="-3.969300">
        <ele>368.738091</ele>
        <time>2020-03-31T10:21:00.247Z</time>
      </trkpt>
      <trkpt lat="56.576768" lon="-3.969618">
        <ele>366.493560</ele>
        <time>2020-03-31T10:21:02.631Z</time>
      </trkpt>
      <trkpt lat="56.576531" lon="-3.970030">
        <ele>362.660741</ele>
        <time>2020-03-31T10:21:06.776Z</time>
      </trkpt>
      <trkpt lat="56.576494" lon="-3.970219">
        <ele>361.476498</ele>
        <time>2020-03-31T10:21:08.177Z</time>
      </trkpt>
      <trkpt lat="56.576508" lon="-3.970476">
        <ele>359.951758</ele>
        <time>2020-03-31T10:21:09.988Z</time>
      </trkpt>
      <trkpt lat="56.576626" lon="-3.970674">
        <ele>358.229476</ele>
        <time>2020-03-31T10:21:12.030Z</time>
      </trkpt>
      <trkpt lat="56.576853" lon="-3.970888">
        <ele>355.487875</ele>
        <time>2020-03-31T10:21:15.283Z</time>
      </trkpt>
      <trkpt lat="56.577373" lon="-3.970957">
        <ele>349.899349</ele>
        <time>2020-03-31T10:21:21.742Z</time>
      </trkpt>
      <trkpt lat="56.577642" lon="-3.971163">
        <ele>346.770045</ele>
        <time>2020-03-31T10:21:25.445Z</time>
      </trkpt>
      <trkpt lat="56.578148" lon="-3.971832">
        <ele>341.038831</ele>
        <time>2020-03-31T10:21:33.501Z</time>
      </trkpt>
      <trkpt lat="56.578203" lon="-3.972045">
        <ele>339.997117</ele>
        <time>2020-03-31T10:21:35.099Z</time>
      </trkpt>
      <trkpt lat="56.578194" lon="-3.972293">
        <ele>338.896539</ele>
        <time>2020-03-31T10:21:36.962Z</time>
      </trkpt>
      <trkpt lat="56.578182" lon="-3.972591">
        <ele>337.573410</ele>
        <time>2020-03-31T10:21:39.102Z</time>
      </trkpt>
      <trkpt lat="56.578129" lon="-3.974734">
        <ele>328.669182</ele>
        <time>2020-03-31T10:21:54.908Z</time>
      </trkpt>
      <trkpt lat="56.578177" lon="-3.975480">
        <ele>326.717890</ele>
        <time>2020-03-31T10:22:01.056Z</time>
      </trkpt>
      <trkpt lat="56.578742" lon="-3.979452">
        <ele>315.613678</ele>
        <time>2020-03-31T10:22:34.189Z</time>
      </trkpt>
      <trkpt lat="56.578781" lon="-3.980986">
        <ele>311.110045</ele>
        <time>2020-03-31T10:22:45.821Z</time>
      </trkpt>
      <trkpt lat="56.578964" lon="-3.982765">
        <ele>304.446252</ele>
        <time>2020-03-31T10:22:59.241Z</time>
      </trkpt>
      <trkpt lat="56.579037" lon="-3.983068">
        <ele>303.228501</ele>
        <time>2020-03-31T10:23:01.694Z</time>
      </trkpt>
      <trkpt lat="56.579034" lon="-3.983190">
        <ele>302.778834</ele>
        <time>2020-03-31T10:23:03.154Z</time>
      </trkpt>
      <trkpt lat="56.579100" lon="-3.984542">
        <ele>298.502335</ele>
        <time>2020-03-31T10:23:20.612Z</time>
      </trkpt>
      <trkpt lat="56.579026" lon="-3.985086">
        <ele>297.191176</ele>
        <time>2020-03-31T10:23:27.921Z</time>
      </trkpt>
      <trkpt lat="56.578747" lon="-3.985746">
        <ele>295.244409</ele>
        <time>2020-03-31T10:23:39.035Z</time>
      </trkpt>
      <trkpt lat="56.578584" lon="-3.985985">
        <ele>294.354309</ele>
        <time>2020-03-31T10:23:44.601Z</time>
      </trkpt>
      <trkpt lat="56.578052" lon="-3.987114">
        <ele>291.625359</ele>
        <time>2020-03-31T10:24:06.808Z</time>
      </trkpt>
      <trkpt lat="56.577866" lon="-3.987535">
        <ele>291.123469</ele>
        <time>2020-03-31T10:24:15.060Z</time>
      </trkpt>
      <trkpt lat="56.577707" lon="-3.988133">
        <ele>290.505956</ele>
        <time>2020-03-31T10:24:25.392Z</time>
      </trkpt>
      <trkpt lat="56.577386" lon="-3.988723">
        <ele>289.734747</ele>
        <time>2020-03-31T10:24:38.506Z</time>
      </trkpt>
      <trkpt lat="56.577263" lon="-3.989630">
        <ele>288.790169</ele>
        <time>2020-03-31T10:24:53.301Z</time>
      </trkpt>
      <trkpt lat="56.576672" lon="-3.991216">
        <ele>286.382620</ele>
        <time>2020-03-31T10:25:22.511Z</time>
      </trkpt>
      <trkpt lat="56.576400" lon="-3.992101">
        <ele>285.108393</ele>
        <time>2020-03-31T10:25:37.084Z</time>
      </trkpt>
      <trkpt lat="56.576175" lon="-3.993136">
        <ele>283.413857</ele>
        <time>2020-03-31T10:25:52.697Z</time>
      </trkpt>
      <trkpt lat="56.575849" lon="-3.995051">
        <ele>280.305762</ele>
        <time>2020-03-31T10:26:21.354Z</time>
      </trkpt>
      <trkpt lat="56.575427" lon="-3.996829">
        <ele>279.695421</ele>
        <time>2020-03-31T10:26:52.957Z</time>
      </trkpt>
      <trkpt lat="56.575344" lon="-3.996915">
        <ele>279.673015</ele>
        <time>2020-03-31T10:26:56.352Z</time>
      </trkpt>
      <trkpt lat="56.574877" lon="-3.996679">
        <ele>279.559366</ele>
        <time>2020-03-31T10:27:14.126Z</time>
      </trkpt>
      <trkpt lat="56.574571" lon="-3.996815">
        <ele>279.485651</ele>
        <time>2020-03-31T10:27:26.138Z</time>
      </trkpt>
      <trkpt lat="56.573725" lon="-3.998551">
        <ele>279.194088</ele>
        <time>2020-03-31T10:28:08.910Z</time>
      </trkpt>
      <trkpt lat="56.573317" lon="-3.999734">
        <ele>278.410440</ele>
        <time>2020-03-31T10:28:30.481Z</time>
      </trkpt>
      <trkpt lat="56.573132" lon="-4.000115">
        <ele>277.717712</ele>
        <time>2020-03-31T10:28:37.981Z</time>
      </trkpt>
      <trkpt lat="56.573013" lon="-4.000235">
        <ele>277.380659</ele>
        <time>2020-03-31T10:28:41.680Z</time>
      </trkpt>
      <trkpt lat="56.572859" lon="-4.000729">
        <ele>276.606452</ele>
        <time>2020-03-31T10:28:49.906Z</time>
      </trkpt>
      <trkpt lat="56.572535" lon="-4.001139">
        <ele>275.628546</ele>
        <time>2020-03-31T10:29:00.216Z</time>
      </trkpt>
      <trkpt lat="56.571497" lon="-4.002150">
        <ele>272.634110</ele>
        <time>2020-03-31T10:29:31.164Z</time>
      </trkpt>
      <trkpt lat="56.571438" lon="-4.002328">
        <ele>272.339249</ele>
        <time>2020-03-31T10:29:34.203Z</time>
      </trkpt>
      <trkpt lat="56.571447" lon="-4.002921">
        <ele>271.497220</ele>
        <time>2020-03-31T10:29:42.874Z</time>
      </trkpt>
      <trkpt lat="56.571244" lon="-4.003349">
        <ele>270.695575</ele>
        <time>2020-03-31T10:29:51.222Z</time>
      </trkpt>
      <trkpt lat="56.570562" lon="-4.004050">
        <ele>269.715590</ele>
        <time>2020-03-31T10:30:12.713Z</time>
      </trkpt>
      <trkpt lat="56.570313" lon="-4.004627">
        <ele>269.496673</ele>
        <time>2020-03-31T10:30:23.984Z</time>
      </trkpt>
      <trkpt lat="56.570193" lon="-4.004789">
        <ele>269.415594</ele>
        <time>2020-03-31T10:30:28.385Z</time>
      </trkpt>
      <trkpt lat="56.568877" lon="-4.005474">
        <ele>270.640902</ele>
        <time>2020-03-31T10:31:20.850Z</time>
      </trkpt>
      <trkpt lat="56.568774" lon="-4.005453">
        <ele>270.906042</ele>
        <time>2020-03-31T10:31:25.369Z</time>
      </trkpt>
      <trkpt lat="56.568738" lon="-4.005430">
        <ele>271.003671</ele>
        <time>2020-03-31T10:31:27.071Z</time>
      </trkpt>
      <trkpt lat="56.568669" lon="-4.005412">
        <ele>271.181993</ele>
        <time>2020-03-31T10:31:31.573Z</time>
      </trkpt>
      <trkpt lat="56.568446" lon="-4.005294">
        <ele>271.776192</ele>
        <time>2020-03-31T10:31:41.219Z</time>
      </trkpt>
      <trkpt lat="56.568135" lon="-4.005324">
        <ele>272.572879</ele>
        <time>2020-03-31T10:31:56.276Z</time>
      </trkpt>
      <trkpt lat="56.567313" lon="-4.006045">
        <ele>275.240070</ele>
        <time>2020-03-31T10:32:42.704Z</time>
      </trkpt>
      <trkpt lat="56.566829" lon="-4.006308">
        <ele>276.864944</ele>
        <time>2020-03-31T10:33:05.940Z</time>
      </trkpt>
      <trkpt lat="56.566267" lon="-4.006372">
        <ele>278.675966</ele>
        <time>2020-03-31T10:33:32.251Z</time>
      </trkpt>
      <trkpt lat="56.566050" lon="-4.006877">
        <ele>279.863755</ele>
        <time>2020-03-31T10:33:48.970Z</time>
      </trkpt>
      <trkpt lat="56.565883" lon="-4.006871">
        <ele>280.470749</ele>
        <time>2020-03-31T10:33:57.036Z</time>
      </trkpt>
      <trkpt lat="56.565599" lon="-4.007005">
        <ele>281.537103</ele>
        <time>2020-03-31T10:34:11.292Z</time>
      </trkpt>
      <trkpt lat="56.565158" lon="-4.007457">
        <ele>283.377577</ele>
        <time>2020-03-31T10:34:36.530Z</time>
      </trkpt>
      <trkpt lat="56.564783" lon="-4.007568">
        <ele>284.758323</ele>
        <time>2020-03-31T10:34:56.890Z</time>
      </trkpt>
      <trkpt lat="56.564393" lon="-4.007418">
        <ele>286.169393</ele>
        <time>2020-03-31T10:35:17.909Z</time>
      </trkpt>
      <trkpt lat="56.564205" lon="-4.007258">
        <ele>286.817793</ele>
        <time>2020-03-31T10:35:27.227Z</time>
      </trkpt>
      <trkpt lat="56.563861" lon="-4.007547">
        <ele>288.001494</ele>
        <time>2020-03-31T10:35:46.548Z</time>
      </trkpt>
      <trkpt lat="56.563605" lon="-4.007908">
        <ele>289.013843</ele>
        <time>2020-03-31T10:36:02.385Z</time>
      </trkpt>
      <trkpt lat="56.563630" lon="-4.008203">
        <ele>289.527393</ele>
        <time>2020-03-31T10:36:11.952Z</time>
      </trkpt>
      <trkpt lat="56.563662" lon="-4.008312">
        <ele>289.739899</ele>
        <time>2020-03-31T10:36:14.819Z</time>
      </trkpt>
      <trkpt lat="56.563771" lon="-4.008476">
        <ele>290.182026</ele>
        <time>2020-03-31T10:36:20.152Z</time>
      </trkpt>
      <trkpt lat="56.563604" lon="-4.008557">
        <ele>290.721811</ele>
        <time>2020-03-31T10:36:29.342Z</time>
      </trkpt>
      <trkpt lat="56.563648" lon="-4.008920">
        <ele>291.361327</ele>
        <time>2020-03-31T10:36:36.814Z</time>
      </trkpt>
      <trkpt lat="56.563601" lon="-4.009435">
        <ele>291.646556</ele>
        <time>2020-03-31T10:36:48.520Z</time>
      </trkpt>
      <trkpt lat="56.563483" lon="-4.009907">
        <ele>291.761401</ele>
        <time>2020-03-31T10:36:59.934Z</time>
      </trkpt>
      <trkpt lat="56.563318" lon="-4.010418">
        <ele>291.892634</ele>
        <time>2020-03-31T10:37:11.709Z</time>
      </trkpt>
      <trkpt lat="56.563295" lon="-4.010901">
        <ele>292.000054</ele>
        <time>2020-03-31T10:37:19.767Z</time>
      </trkpt>
      <trkpt lat="56.563461" lon="-4.011426">
        <ele>292.134173</ele>
        <time>2020-03-31T10:37:30.313Z</time>
      </trkpt>
      <trkpt lat="56.563437" lon="-4.011888">
        <ele>292.236995</ele>
        <time>2020-03-31T10:37:38.084Z</time>
      </trkpt>
      <trkpt lat="56.563230" lon="-4.012638">
        <ele>291.781274</ele>
        <time>2020-03-31T10:37:51.833Z</time>
      </trkpt>
      <trkpt lat="56.562792" lon="-4.014624">
        <ele>290.137949</ele>
        <time>2020-03-31T10:38:25.454Z</time>
      </trkpt>
      <trkpt lat="56.562350" lon="-4.015696">
        <ele>287.988671</ele>
        <time>2020-03-31T10:38:45.547Z</time>
      </trkpt>
      <trkpt lat="56.562065" lon="-4.017048">
        <ele>284.994701</ele>
        <time>2020-03-31T10:39:05.999Z</time>
      </trkpt>
      <trkpt lat="56.561492" lon="-4.019173">
        <ele>277.500303</ele>
        <time>2020-03-31T10:39:36.825Z</time>
      </trkpt>
      <trkpt lat="56.561232" lon="-4.020385">
        <ele>272.412929</ele>
        <time>2020-03-31T10:39:52.847Z</time>
      </trkpt>
      <trkpt lat="56.561249" lon="-4.021018">
        <ele>269.842375</ele>
        <time>2020-03-31T10:40:00.596Z</time>
      </trkpt>
      <trkpt lat="56.561404" lon="-4.021425">
        <ele>267.351326</ele>
        <time>2020-03-31T10:40:06.626Z</time>
      </trkpt>
      <trkpt lat="56.561965" lon="-4.021307">
        <ele>262.190994</ele>
        <time>2020-03-31T10:40:18.952Z</time>
      </trkpt>
      <trkpt lat="56.562332" lon="-4.021340">
        <ele>258.833498</ele>
        <time>2020-03-31T10:40:26.989Z</time>
      </trkpt>
      <trkpt lat="56.562598" lon="-4.021533">
        <ele>256.215927</ele>
        <time>2020-03-31T10:40:33.107Z</time>
      </trkpt>
      <trkpt lat="56.562834" lon="-4.021887">
        <ele>253.291813</ele>
        <time>2020-03-31T10:40:39.794Z</time>
      </trkpt>
      <trkpt lat="56.562893" lon="-4.022176">
        <ele>251.249314</ele>
        <time>2020-03-31T10:40:43.550Z</time>
      </trkpt>
      <trkpt lat="56.562844" lon="-4.022370">
        <ele>249.834997</ele>
        <time>2020-03-31T10:40:46.043Z</time>
      </trkpt>
      <trkpt lat="56.562826" lon="-4.022450">
        <ele>249.262321</ele>
        <time>2020-03-31T10:40:47.184Z</time>
      </trkpt>
      <trkpt lat="56.562796" lon="-4.022550">
        <ele>248.507741</ele>
        <time>2020-03-31T10:40:48.557Z</time>
      </trkpt>
      <trkpt lat="56.562786" lon="-4.022595">
        <ele>248.186175</ele>
        <time>2020-03-31T10:40:49.083Z</time>
      </trkpt>
      <trkpt lat="56.562852" lon="-4.022874">
        <ele>246.173984</ele>
        <time>2020-03-31T10:40:52.769Z</time>
      </trkpt>
      <trkpt lat="56.563118" lon="-4.022960">
        <ele>242.924384</ele>
        <time>2020-03-31T10:40:58.564Z</time>
      </trkpt>
      <trkpt lat="56.563258" lon="-4.023220">
        <ele>240.515203</ele>
        <time>2020-03-31T10:41:02.800Z</time>
      </trkpt>
      <trkpt lat="56.563283" lon="-4.023333">
        <ele>239.708225</ele>
        <time>2020-03-31T10:41:04.165Z</time>
      </trkpt>
      <trkpt lat="56.563307" lon="-4.023711">
        <ele>237.186582</ele>
        <time>2020-03-31T10:41:08.518Z</time>
      </trkpt>
      <trkpt lat="56.563213" lon="-4.024055">
        <ele>234.641903</ele>
        <time>2020-03-31T10:41:12.745Z</time>
      </trkpt>
      <trkpt lat="56.563277" lon="-4.024420">
        <ele>232.069615</ele>
        <time>2020-03-31T10:41:17.016Z</time>
      </trkpt>
      <trkpt lat="56.563520" lon="-4.024700">
        <ele>227.180262</ele>
        <time>2020-03-31T10:41:22.857Z</time>
      </trkpt>
      <trkpt lat="56.563866" lon="-4.025099">
        <ele>220.216892</ele>
        <time>2020-03-31T10:41:31.097Z</time>
      </trkpt>
      <trkpt lat="56.563934" lon="-4.025106">
        <ele>219.059968</ele>
        <time>2020-03-31T10:41:32.423Z</time>
      </trkpt>
      <trkpt lat="56.563992" lon="-4.025039">
        <ele>217.892120</ele>
        <time>2020-03-31T10:41:33.804Z</time>
      </trkpt>
      <trkpt lat="56.564197" lon="-4.024889">
        <ele>214.137569</ele>
        <time>2020-03-31T10:41:38.325Z</time>
      </trkpt>
      <trkpt lat="56.564240" lon="-4.024866">
        <ele>213.376097</ele>
        <time>2020-03-31T10:41:39.222Z</time>
      </trkpt>
      <trkpt lat="56.564418" lon="-4.024848">
        <ele>210.347847</ele>
        <time>2020-03-31T10:41:42.839Z</time>
      </trkpt>
      <trkpt lat="56.564738" lon="-4.025336">
        <ele>203.248068</ele>
        <time>2020-03-31T10:41:51.110Z</time>
      </trkpt>
      <trkpt lat="56.565132" lon="-4.025687">
        <ele>195.942572</ele>
        <time>2020-03-31T10:41:59.813Z</time>
      </trkpt>
      <trkpt lat="56.565294" lon="-4.025705">
        <ele>193.256395</ele>
        <time>2020-03-31T10:42:02.985Z</time>
      </trkpt>
      <trkpt lat="56.565863" lon="-4.025484">
        <ele>183.626022</ele>
        <time>2020-03-31T10:42:14.702Z</time>
      </trkpt>
      <trkpt lat="56.567157" lon="-4.025559">
        <ele>162.927977</ele>
        <time>2020-03-31T10:42:40.787Z</time>
      </trkpt>
      <trkpt lat="56.567810" lon="-4.025597">
        <ele>152.930559</ele>
        <time>2020-03-31T10:42:53.985Z</time>
      </trkpt>
      <trkpt lat="56.568139" lon="-4.025735">
        <ele>147.763479</ele>
        <time>2020-03-31T10:43:00.841Z</time>
      </trkpt>
      <trkpt lat="56.568483" lon="-4.026380">
        <ele>141.377295</ele>
        <time>2020-03-31T10:43:10.803Z</time>
      </trkpt>
      <trkpt lat="56.569441" lon="-4.027024">
        <ele>130.200768</ele>
        <time>2020-03-31T10:43:32.241Z</time>
      </trkpt>
      <trkpt lat="56.569843" lon="-4.027304">
        <ele>125.490080</ele>
        <time>2020-03-31T10:43:41.918Z</time>
      </trkpt>
      <trkpt lat="56.569976" lon="-4.026922">
        <ele>124.120633</ele>
        <time>2020-03-31T10:43:45.184Z</time>
      </trkpt>
      <trkpt lat="56.570152" lon="-4.026432">
        <ele>123.110635</ele>
        <time>2020-03-31T10:43:49.498Z</time>
      </trkpt>
      <trkpt lat="56.570170" lon="-4.026293">
        <ele>122.864089</ele>
        <time>2020-03-31T10:43:50.588Z</time>
      </trkpt>
      <trkpt lat="56.570151" lon="-4.026140">
        <ele>122.593282</ele>
        <time>2020-03-31T10:43:51.753Z</time>
      </trkpt>
      <trkpt lat="56.570114" lon="-4.025916">
        <ele>122.189501</ele>
        <time>2020-03-31T10:43:53.617Z</time>
      </trkpt>
      <trkpt lat="56.570112" lon="-4.025802">
        <ele>121.992562</ele>
        <time>2020-03-31T10:43:54.523Z</time>
      </trkpt>
      <trkpt lat="56.570133" lon="-4.025514">
        <ele>121.490949</ele>
        <time>2020-03-31T10:43:56.822Z</time>
      </trkpt>
      <trkpt lat="56.570338" lon="-4.024418">
        <ele>119.492444</ele>
        <time>2020-03-31T10:44:07.755Z</time>
      </trkpt>
      <trkpt lat="56.570567" lon="-4.023291">
        <ele>118.764069</ele>
        <time>2020-03-31T10:44:20.375Z</time>
      </trkpt>
      <trkpt lat="56.571080" lon="-4.021668">
        <ele>118.235797</ele>
        <time>2020-03-31T10:44:38.490Z</time>
      </trkpt>
      <trkpt lat="56.571169" lon="-4.021474">
        <ele>118.164523</ele>
        <time>2020-03-31T10:44:40.984Z</time>
      </trkpt>
      <trkpt lat="56.571480" lon="-4.020935">
        <ele>118.220305</ele>
        <time>2020-03-31T10:44:48.675Z</time>
      </trkpt>
      <trkpt lat="56.571707" lon="-4.020594">
        <ele>118.327971</ele>
        <time>2020-03-31T10:44:54.140Z</time>
      </trkpt>
      <trkpt lat="56.571856" lon="-4.020326">
        <ele>118.404618</ele>
        <time>2020-03-31T10:44:58.008Z</time>
      </trkpt>
      <trkpt lat="56.572142" lon="-4.019731">
        <ele>118.563573</ele>
        <time>2020-03-31T10:45:06.864Z</time>
      </trkpt>
      <trkpt lat="56.572402" lon="-4.019105">
        <ele>118.721386</ele>
        <time>2020-03-31T10:45:17.579Z</time>
      </trkpt>
      <trkpt lat="56.572461" lon="-4.018930">
        <ele>118.763172</ele>
        <time>2020-03-31T10:45:20.381Z</time>
      </trkpt>
      <trkpt lat="56.572493" lon="-4.018817">
        <ele>118.931197</ele>
        <time>2020-03-31T10:45:22.209Z</time>
      </trkpt>
      <trkpt lat="56.572535" lon="-4.018625">
        <ele>119.204393</ele>
        <time>2020-03-31T10:45:25.743Z</time>
      </trkpt>
      <trkpt lat="56.572791" lon="-4.017684">
        <ele>120.592288</ele>
        <time>2020-03-31T10:45:43.144Z</time>
      </trkpt>
      <trkpt lat="56.573086" lon="-4.016895">
        <ele>121.853319</ele>
        <time>2020-03-31T10:46:00.725Z</time>
      </trkpt>
      <trkpt lat="56.573374" lon="-4.015263">
        <ele>124.021775</ele>
        <time>2020-03-31T10:46:32.939Z</time>
      </trkpt>
      <trkpt lat="56.573826" lon="-4.013732">
        <ele>126.102689</ele>
        <time>2020-03-31T10:47:02.331Z</time>
      </trkpt>
      <trkpt lat="56.574235" lon="-4.012917">
        <ele>127.097943</ele>
        <time>2020-03-31T10:47:18.004Z</time>
      </trkpt>
      <trkpt lat="56.574927" lon="-4.012089">
        <ele>127.540580</ele>
        <time>2020-03-31T10:47:37.050Z</time>
      </trkpt>
      <trkpt lat="56.575867" lon="-4.009390">
        <ele>127.470463</ele>
        <time>2020-03-31T10:48:10.516Z</time>
      </trkpt>
      <trkpt lat="56.576734" lon="-4.007838">
        <ele>126.550897</ele>
        <time>2020-03-31T10:48:31.085Z</time>
      </trkpt>
      <trkpt lat="56.577190" lon="-4.007142">
        <ele>125.783520</ele>
        <time>2020-03-31T10:48:40.882Z</time>
      </trkpt>
      <trkpt lat="56.577654" lon="-4.006468">
        <ele>125.018078</ele>
        <time>2020-03-31T10:48:50.553Z</time>
      </trkpt>
      <trkpt lat="56.577858" lon="-4.006130">
        <ele>124.720095</ele>
        <time>2020-03-31T10:48:55.050Z</time>
      </trkpt>
      <trkpt lat="56.578210" lon="-4.005545">
        <ele>124.478141</ele>
        <time>2020-03-31T10:49:02.721Z</time>
      </trkpt>
      <trkpt lat="56.578406" lon="-4.005256">
        <ele>124.350120</ele>
        <time>2020-03-31T10:49:06.790Z</time>
      </trkpt>
      <trkpt lat="56.578954" lon="-4.004271">
        <ele>123.959142</ele>
        <time>2020-03-31T10:49:22.043Z</time>
      </trkpt>
      <trkpt lat="56.579133" lon="-4.003774">
        <ele>123.983260</ele>
        <time>2020-03-31T10:49:29.198Z</time>
      </trkpt>
      <trkpt lat="56.579236" lon="-4.003469">
        <ele>124.245968</ele>
        <time>2020-03-31T10:49:33.783Z</time>
      </trkpt>
      <trkpt lat="56.579299" lon="-4.003277">
        <ele>124.410077</ele>
        <time>2020-03-31T10:49:36.429Z</time>
      </trkpt>
      <trkpt lat="56.579471" lon="-4.002756">
        <ele>124.856106</ele>
        <time>2020-03-31T10:49:44.857Z</time>
      </trkpt>
      <trkpt lat="56.579762" lon="-4.001427">
        <ele>125.906273</ele>
        <time>2020-03-31T10:50:06.601Z</time>
      </trkpt>
      <trkpt lat="56.579897" lon="-4.001037">
        <ele>126.244420</ele>
        <time>2020-03-31T10:50:14.574Z</time>
      </trkpt>
      <trkpt lat="56.580796" lon="-3.999411">
        <ele>127.775052</ele>
        <time>2020-03-31T10:50:48.607Z</time>
      </trkpt>
      <trkpt lat="56.581387" lon="-3.997888">
        <ele>127.208358</ele>
        <time>2020-03-31T10:51:11.229Z</time>
      </trkpt>
      <trkpt lat="56.581868" lon="-3.996806">
        <ele>125.352199</ele>
        <time>2020-03-31T10:51:22.449Z</time>
      </trkpt>
      <trkpt lat="56.582266" lon="-3.995947">
        <ele>123.626708</ele>
        <time>2020-03-31T10:51:30.957Z</time>
      </trkpt>
      <trkpt lat="56.582294" lon="-3.995915">
        <ele>123.455459</ele>
        <time>2020-03-31T10:51:31.411Z</time>
      </trkpt>
      <trkpt lat="56.582492" lon="-3.995762">
        <ele>122.341643</ele>
        <time>2020-03-31T10:51:34.194Z</time>
      </trkpt>
      <trkpt lat="56.582637" lon="-3.995793">
        <ele>121.585924</ele>
        <time>2020-03-31T10:51:36.181Z</time>
      </trkpt>
      <trkpt lat="56.582876" lon="-3.995843">
        <ele>120.340651</ele>
        <time>2020-03-31T10:51:39.257Z</time>
      </trkpt>
      <trkpt lat="56.583718" lon="-3.996341">
        <ele>115.756998</ele>
        <time>2020-03-31T10:51:50.930Z</time>
      </trkpt>
      <trkpt lat="56.583837" lon="-3.996465">
        <ele>115.046827</ele>
        <time>2020-03-31T10:51:52.654Z</time>
      </trkpt>
      <trkpt lat="56.583915" lon="-3.996547">
        <ele>114.679959</ele>
        <time>2020-03-31T10:51:54.311Z</time>
      </trkpt>
      <trkpt lat="56.584154" lon="-3.996834">
        <ele>114.101409</ele>
        <time>2020-03-31T10:51:59.644Z</time>
      </trkpt>
      <trkpt lat="56.584249" lon="-3.996973">
        <ele>113.855070</ele>
        <time>2020-03-31T10:52:02.176Z</time>
      </trkpt>
      <trkpt lat="56.584331" lon="-3.997116">
        <ele>113.625512</ele>
        <time>2020-03-31T10:52:04.019Z</time>
      </trkpt>
      <trkpt lat="56.584363" lon="-3.997187">
        <ele>113.523494</ele>
        <time>2020-03-31T10:52:04.747Z</time>
      </trkpt>
      <trkpt lat="56.584560" lon="-3.997709">
        <ele>112.819843</ele>
        <time>2020-03-31T10:52:10.278Z</time>
      </trkpt>
      <trkpt lat="56.584429" lon="-3.998037">
        <ele>112.369308</ele>
        <time>2020-03-31T10:52:14.109Z</time>
      </trkpt>
      <trkpt lat="56.584401" lon="-3.998126">
        <ele>112.255334</ele>
        <time>2020-03-31T10:52:15.375Z</time>
      </trkpt>
      <trkpt lat="56.584263" lon="-3.998645">
        <ele>111.614485</ele>
        <time>2020-03-31T10:52:20.949Z</time>
      </trkpt>
      <trkpt lat="56.584126" lon="-3.999284">
        <ele>111.229406</ele>
        <time>2020-03-31T10:52:29.194Z</time>
      </trkpt>
      <trkpt lat="56.584126" lon="-3.999284">
        <ele>111.229406</ele>
        <time>2020-03-31T10:52:29.229Z</time>
      </trkpt>
      <trkpt lat="56.584031" lon="-3.999689">
        <ele>111.450421</ele>
        <time>2020-03-31T10:52:34.678Z</time>
      </trkpt>
      <trkpt lat="56.583992" lon="-3.999990">
        <ele>111.605671</ele>
        <time>2020-03-31T10:52:38.745Z</time>
      </trkpt>
      <trkpt lat="56.583879" lon="-4.000889">
        <ele>112.068641</ele>
        <time>2020-03-31T10:52:51.677Z</time>
      </trkpt>
      <trkpt lat="56.583910" lon="-4.001209">
        <ele>112.231771</ele>
        <time>2020-03-31T10:52:57.404Z</time>
      </trkpt>
      <trkpt lat="56.584085" lon="-4.001670">
        <ele>112.512886</ele>
        <time>2020-03-31T10:53:05.988Z</time>
      </trkpt>
      <trkpt lat="56.584255" lon="-4.001914">
        <ele>112.710440</ele>
        <time>2020-03-31T10:53:11.922Z</time>
      </trkpt>
      <trkpt lat="56.584414" lon="-4.001979">
        <ele>112.837168</ele>
        <time>2020-03-31T10:53:16.167Z</time>
      </trkpt>
      <trkpt lat="56.584681" lon="-4.001929">
        <ele>113.032005</ele>
        <time>2020-03-31T10:53:21.983Z</time>
      </trkpt>
      <trkpt lat="56.584790" lon="-4.001819">
        <ele>113.122523</ele>
        <time>2020-03-31T10:53:25.283Z</time>
      </trkpt>
      <trkpt lat="56.585084" lon="-4.001526">
        <ele>113.365958</ele>
        <time>2020-03-31T10:53:32.372Z</time>
      </trkpt>
      <trkpt lat="56.585208" lon="-4.001372">
        <ele>113.475005</ele>
        <time>2020-03-31T10:53:35.947Z</time>
      </trkpt>
      <trkpt lat="56.585274" lon="-4.001458">
        <ele>113.533970</ele>
        <time>2020-03-31T10:53:37.352Z</time>
      </trkpt>
      <trkpt lat="56.585346" lon="-4.001535">
        <ele>113.594624</ele>
        <time>2020-03-31T10:53:39.314Z</time>
      </trkpt>
      <trkpt lat="56.585460" lon="-4.001625">
        <ele>113.684856</ele>
        <time>2020-03-31T10:53:42.376Z</time>
      </trkpt>
      <trkpt lat="56.586102" lon="-4.002037">
        <ele>114.351658</ele>
        <time>2020-03-31T10:53:58.601Z</time>
      </trkpt>
      <trkpt lat="56.586370" lon="-4.002225">
        <ele>114.855785</ele>
        <time>2020-03-31T10:54:04.840Z</time>
      </trkpt>
      <trkpt lat="56.586812" lon="-4.002501">
        <ele>115.675933</ele>
        <time>2020-03-31T10:54:16.131Z</time>
      </trkpt>
      <trkpt lat="56.586862" lon="-4.002534">
        <ele>115.769282</ele>
        <time>2020-03-31T10:54:17.580Z</time>
      </trkpt>
      <trkpt lat="56.587064" lon="-4.002668">
        <ele>116.146640</ele>
        <time>2020-03-31T10:54:23.473Z</time>
      </trkpt>
      <trkpt lat="56.587211" lon="-4.002794">
        <ele>116.431869</ele>
        <time>2020-03-31T10:54:28.647Z</time>
      </trkpt>
      <trkpt lat="56.587333" lon="-4.002920">
        <ele>116.678141</ele>
        <time>2020-03-31T10:54:33.506Z</time>
      </trkpt>
      <trkpt lat="56.587462" lon="-4.003099">
        <ele>116.963012</ele>
        <time>2020-03-31T10:54:38.805Z</time>
      </trkpt>
      <trkpt lat="56.587565" lon="-4.003270">
        <ele>117.207890</ele>
        <time>2020-03-31T10:54:44.084Z</time>
      </trkpt>
      <trkpt lat="56.587683" lon="-4.003522">
        <ele>117.919435</ele>
        <time>2020-03-31T10:54:50.277Z</time>
      </trkpt>
      <trkpt lat="56.587683" lon="-4.003522">
        <ele>117.919435</ele>
        <time>2020-03-31T10:54:50.325Z</time>
      </trkpt>
      <trkpt lat="56.587834" lon="-4.003296">
        <ele>118.691245</ele>
        <time>2020-03-31T10:54:58.127Z</time>
      </trkpt>
      <trkpt lat="56.587918" lon="-4.003234">
        <ele>119.048891</ele>
        <time>2020-03-31T10:55:01.468Z</time>
      </trkpt>
      <trkpt lat="56.588037" lon="-4.003279">
        <ele>119.528337</ele>
        <time>2020-03-31T10:55:05.790Z</time>
      </trkpt>
      <trkpt lat="56.588439" lon="-4.003565">
        <ele>121.231301</ele>
        <time>2020-03-31T10:55:22.616Z</time>
      </trkpt>
      <trkpt lat="56.588579" lon="-4.003665">
        <ele>121.824689</ele>
        <time>2020-03-31T10:55:28.873Z</time>
      </trkpt>
      <trkpt lat="56.588752" lon="-4.003607">
        <ele>122.518592</ele>
        <time>2020-03-31T10:55:36.017Z</time>
      </trkpt>
      <trkpt lat="56.589012" lon="-4.003014">
        <ele>124.164964</ele>
        <time>2020-03-31T10:55:54.031Z</time>
      </trkpt>
      <trkpt lat="56.589219" lon="-4.002557">
        <ele>125.898464</ele>
        <time>2020-03-31T10:56:09.080Z</time>
      </trkpt>
      <trkpt lat="56.589244" lon="-4.002501">
        <ele>126.116489</ele>
        <time>2020-03-31T10:56:10.712Z</time>
      </trkpt>
      <trkpt lat="56.589580" lon="-4.002241">
        <ele>128.122420</ele>
        <time>2020-03-31T10:56:26.379Z</time>
      </trkpt>
      <trkpt lat="56.590023" lon="-4.001509">
        <ele>131.411848</ele>
        <time>2020-03-31T10:56:52.077Z</time>
      </trkpt>
      <trkpt lat="56.589843" lon="-4.002012">
        <ele>133.226038</ele>
        <time>2020-03-31T10:57:10.984Z</time>
      </trkpt>
      <trkpt lat="56.589789" lon="-4.002176">
        <ele>133.803917</ele>
        <time>2020-03-31T10:57:18.706Z</time>
      </trkpt>
      <trkpt lat="56.589318" lon="-4.003910">
        <ele>142.797003</ele>
        <time>2020-03-31T10:58:37.109Z</time>
      </trkpt>
      <trkpt lat="56.589090" lon="-4.004420">
        <ele>145.927346</ele>
        <time>2020-03-31T10:59:05.197Z</time>
      </trkpt>
      <trkpt lat="56.589032" lon="-4.004705">
        <ele>147.375203</ele>
        <time>2020-03-31T10:59:19.146Z</time>
      </trkpt>
      <trkpt lat="56.588914" lon="-4.005280">
        <ele>150.421069</ele>
        <time>2020-03-31T10:59:45.992Z</time>
      </trkpt>
      <trkpt lat="56.588821" lon="-4.006234">
        <ele>156.064643</ele>
        <time>2020-03-31T11:00:30.002Z</time>
      </trkpt>
      <trkpt lat="56.588546" lon="-4.007265">
        <ele>162.737866</ele>
        <time>2020-03-31T11:01:26.653Z</time>
      </trkpt>
      <trkpt lat="56.588247" lon="-4.009021">
        <ele>173.905708</ele>
        <time>2020-03-31T11:02:50.325Z</time>
      </trkpt>
      <trkpt lat="56.588159" lon="-4.009846">
        <ele>179.284454</ele>
        <time>2020-03-31T11:03:35.186Z</time>
      </trkpt>
      <trkpt lat="56.587882" lon="-4.011109">
        <ele>187.986203</ele>
        <time>2020-03-31T11:04:43.522Z</time>
      </trkpt>
      <trkpt lat="56.587787" lon="-4.011374">
        <ele>190.024445</ele>
        <time>2020-03-31T11:04:56.905Z</time>
      </trkpt>
      <trkpt lat="56.587802" lon="-4.011525">
        <ele>191.049795</ele>
        <time>2020-03-31T11:05:05.604Z</time>
      </trkpt>
      <trkpt lat="56.587872" lon="-4.011558">
        <ele>191.927440</ele>
        <time>2020-03-31T11:05:14.229Z</time>
      </trkpt>
      <trkpt lat="56.587967" lon="-4.011507">
        <ele>193.129635</ele>
        <time>2020-03-31T11:05:21.974Z</time>
      </trkpt>
      <trkpt lat="56.588196" lon="-4.011091">
        <ele>197.060407</ele>
        <time>2020-03-31T11:05:52.512Z</time>
      </trkpt>
      <trkpt lat="56.588295" lon="-4.010663">
        <ele>200.162589</ele>
        <time>2020-03-31T11:06:16.321Z</time>
      </trkpt>
      <trkpt lat="56.588693" lon="-4.009770">
        <ele>207.839708</ele>
        <time>2020-03-31T11:07:15.769Z</time>
      </trkpt>
      <trkpt lat="56.589006" lon="-4.009403">
        <ele>212.265805</ele>
        <time>2020-03-31T11:07:51.913Z</time>
      </trkpt>
      <trkpt lat="56.589326" lon="-4.009243">
        <ele>215.840923</ele>
        <time>2020-03-31T11:08:20.681Z</time>
      </trkpt>
      <trkpt lat="56.589441" lon="-4.009105">
        <ele>217.325631</ele>
        <time>2020-03-31T11:08:32.552Z</time>
      </trkpt>
      <trkpt lat="56.589601" lon="-4.008502">
        <ele>221.295687</ele>
        <time>2020-03-31T11:09:04.089Z</time>
      </trkpt>
      <trkpt lat="56.589810" lon="-4.008011">
        <ele>224.976553</ele>
        <time>2020-03-31T11:09:32.873Z</time>
      </trkpt>
      <trkpt lat="56.590174" lon="-4.007536">
        <ele>229.804558</ele>
        <time>2020-03-31T11:10:10.113Z</time>
      </trkpt>
      <trkpt lat="56.590539" lon="-4.006491">
        <ele>236.599664</ele>
        <time>2020-03-31T11:11:05.214Z</time>
      </trkpt>
      <trkpt lat="56.590776" lon="-4.005984">
        <ele>240.200800</ele>
        <time>2020-03-31T11:11:33.947Z</time>
      </trkpt>
      <trkpt lat="56.590840" lon="-4.005794">
        <ele>241.406828</ele>
        <time>2020-03-31T11:11:43.603Z</time>
      </trkpt>
      <trkpt lat="56.590840" lon="-4.005540">
        <ele>242.782151</ele>
        <time>2020-03-31T11:11:53.889Z</time>
      </trkpt>
      <trkpt lat="56.590919" lon="-4.005382">
        <ele>243.937764</ele>
        <time>2020-03-31T11:12:02.938Z</time>
      </trkpt>
      <trkpt lat="56.591373" lon="-4.005066">
        <ele>248.717012</ele>
        <time>2020-03-31T11:12:44.360Z</time>
      </trkpt>
      <trkpt lat="56.591599" lon="-4.004744">
        <ele>251.503129</ele>
        <time>2020-03-31T11:13:10.042Z</time>
      </trkpt>
      <trkpt lat="56.591880" lon="-4.004125">
        <ele>255.787621</ele>
        <time>2020-03-31T11:13:46.298Z</time>
      </trkpt>
      <trkpt lat="56.592108" lon="-4.003824">
        <ele>258.521603</ele>
        <time>2020-03-31T11:14:10.281Z</time>
      </trkpt>
      <trkpt lat="56.592220" lon="-4.003790">
        <ele>259.623013</ele>
        <time>2020-03-31T11:14:17.958Z</time>
      </trkpt>
      <trkpt lat="56.592246" lon="-4.003797">
        <ele>259.877955</ele>
        <time>2020-03-31T11:14:21.778Z</time>
      </trkpt>
      <trkpt lat="56.592152" lon="-4.004115">
        <ele>261.805494</ele>
        <time>2020-03-31T11:14:35.909Z</time>
      </trkpt>
      <trkpt lat="56.592013" lon="-4.004721">
        <ele>265.311428</ele>
        <time>2020-03-31T11:15:03.255Z</time>
      </trkpt>
      <trkpt lat="56.591749" lon="-4.006384">
        <ele>270.570317</ele>
        <time>2020-03-31T11:16:10.251Z</time>
      </trkpt>
      <trkpt lat="56.591333" lon="-4.007726">
        <ele>274.954936</ele>
        <time>2020-03-31T11:16:50.150Z</time>
      </trkpt>
      <trkpt lat="56.590545" lon="-4.009939">
        <ele>277.096871</ele>
        <time>2020-03-31T11:17:44.744Z</time>
      </trkpt>
      <trkpt lat="56.590469" lon="-4.010584">
        <ele>277.564015</ele>
        <time>2020-03-31T11:17:57.534Z</time>
      </trkpt>
      <trkpt lat="56.590332" lon="-4.011183">
        <ele>278.096458</ele>
        <time>2020-03-31T11:18:10.556Z</time>
      </trkpt>
      <trkpt lat="56.589963" lon="-4.011895">
        <ele>278.919277</ele>
        <time>2020-03-31T11:18:31.052Z</time>
      </trkpt>
      <trkpt lat="56.589510" lon="-4.013049">
        <ele>280.111920</ele>
        <time>2020-03-31T11:19:03.640Z</time>
      </trkpt>
      <trkpt lat="56.589172" lon="-4.014256">
        <ele>280.555939</ele>
        <time>2020-03-31T11:19:36.285Z</time>
      </trkpt>
      <trkpt lat="56.588712" lon="-4.015077">
        <ele>280.751332</ele>
        <time>2020-03-31T11:19:53.185Z</time>
      </trkpt>
      <trkpt lat="56.588317" lon="-4.015479">
        <ele>280.888508</ele>
        <time>2020-03-31T11:20:07.711Z</time>
      </trkpt>
      <trkpt lat="56.588127" lon="-4.015660">
        <ele>281.252249</ele>
        <time>2020-03-31T11:20:15.645Z</time>
      </trkpt>
      <trkpt lat="56.587951" lon="-4.015712">
        <ele>281.961634</ele>
        <time>2020-03-31T11:20:26.555Z</time>
      </trkpt>
      <trkpt lat="56.587880" lon="-4.015732">
        <ele>282.247471</ele>
        <time>2020-03-31T11:20:28.427Z</time>
      </trkpt>
      <trkpt lat="56.587671" lon="-4.015712">
        <ele>283.080087</ele>
        <time>2020-03-31T11:20:40.423Z</time>
      </trkpt>
      <trkpt lat="56.587444" lon="-4.015548">
        <ele>284.052002</ele>
        <time>2020-03-31T11:20:51.991Z</time>
      </trkpt>
      <trkpt lat="56.587671" lon="-4.015712">
        <ele>285.023916</ele>
        <time>2020-03-31T11:21:05.532Z</time>
      </trkpt>
      <trkpt lat="56.587880" lon="-4.015732">
        <ele>285.856532</ele>
        <time>2020-03-31T11:21:15.359Z</time>
      </trkpt>
      <trkpt lat="56.587951" lon="-4.015712">
        <ele>286.142369</ele>
        <time>2020-03-31T11:21:21.585Z</time>
      </trkpt>
      <trkpt lat="56.588127" lon="-4.015660">
        <ele>286.851754</ele>
        <time>2020-03-31T11:21:28.078Z</time>
      </trkpt>
      <trkpt lat="56.587730" lon="-4.016288">
        <ele>289.722991</ele>
        <time>2020-03-31T11:21:59.662Z</time>
      </trkpt>
      <trkpt lat="56.587677" lon="-4.016970">
        <ele>292.591550</ele>
        <time>2020-03-31T11:22:29.841Z</time>
      </trkpt>
      <trkpt lat="56.587587" lon="-4.017287">
        <ele>294.076953</ele>
        <time>2020-03-31T11:22:45.312Z</time>
      </trkpt>
      <trkpt lat="56.587311" lon="-4.017441">
        <ele>296.260748</ele>
        <time>2020-03-31T11:23:07.611Z</time>
      </trkpt>
      <trkpt lat="56.586973" lon="-4.017983">
        <ele>299.671166</ele>
        <time>2020-03-31T11:23:37.665Z</time>
      </trkpt>
      <trkpt lat="56.586399" lon="-4.018647">
        <ele>305.490522</ele>
        <time>2020-03-31T11:24:23.239Z</time>
      </trkpt>
      <trkpt lat="56.586218" lon="-4.019374">
        <ele>309.526879</ele>
        <time>2020-03-31T11:24:55.242Z</time>
      </trkpt>
      <trkpt lat="56.586207" lon="-4.019977">
        <ele>312.579169</ele>
        <time>2020-03-31T11:25:21.682Z</time>
      </trkpt>
      <trkpt lat="56.586303" lon="-4.020709">
        <ele>316.385971</ele>
        <time>2020-03-31T11:25:55.145Z</time>
      </trkpt>
      <trkpt lat="56.585945" lon="-4.022158">
        <ele>326.992532</ele>
        <time>2020-03-31T11:27:17.975Z</time>
      </trkpt>
      <trkpt lat="56.585739" lon="-4.023606">
        <ele>337.693054</ele>
        <time>2020-03-31T11:28:39.808Z</time>
      </trkpt>
      <trkpt lat="56.585777" lon="-4.024560">
        <ele>344.440292</ele>
        <time>2020-03-31T11:29:33.714Z</time>
      </trkpt>
      <trkpt lat="56.586646" lon="-4.023281">
        <ele>358.499533</ele>
        <time>2020-03-31T11:31:25.003Z</time>
      </trkpt>
      <trkpt lat="56.587174" lon="-4.022442">
        <ele>365.522861</ele>
        <time>2020-03-31T11:32:25.131Z</time>
      </trkpt>
      <trkpt lat="56.587603" lon="-4.022922">
        <ele>368.223708</ele>
        <time>2020-03-31T11:33:01.122Z</time>
      </trkpt>
      <trkpt lat="56.588449" lon="-4.024899">
        <ele>373.182073</ele>
        <time>2020-03-31T11:34:03.865Z</time>
      </trkpt>
      <trkpt lat="56.588769" lon="-4.025099">
        <ele>372.524534</ele>
        <time>2020-03-31T11:34:13.554Z</time>
      </trkpt>
      <trkpt lat="56.589483" lon="-4.023441">
        <ele>370.138951</ele>
        <time>2020-03-31T11:34:43.305Z</time>
      </trkpt>
      <trkpt lat="56.589956" lon="-4.023022">
        <ele>366.899677</ele>
        <time>2020-03-31T11:34:55.807Z</time>
      </trkpt>
      <trkpt lat="56.591298" lon="-4.020105">
        <ele>352.662273</ele>
        <time>2020-03-31T11:35:43.745Z</time>
      </trkpt>
      <trkpt lat="56.591947" lon="-4.019826">
        <ele>347.497308</ele>
        <time>2020-03-31T11:35:58.446Z</time>
      </trkpt>
      <trkpt lat="56.592930" lon="-4.018572">
        <ele>337.656204</ele>
        <time>2020-03-31T11:36:25.028Z</time>
      </trkpt>
      <trkpt lat="56.593091" lon="-4.018368">
        <ele>336.021327</ele>
        <time>2020-03-31T11:36:29.345Z</time>
      </trkpt>
      <trkpt lat="56.593718" lon="-4.017049">
        <ele>327.990933</ele>
        <time>2020-03-31T11:36:50.825Z</time>
      </trkpt>
      <trkpt lat="56.594708" lon="-4.015991">
        <ele>318.259726</ele>
        <time>2020-03-31T11:37:16.176Z</time>
      </trkpt>
      <trkpt lat="56.595125" lon="-4.015431">
        <ele>313.863951</ele>
        <time>2020-03-31T11:37:27.621Z</time>
      </trkpt>
      <trkpt lat="56.595479" lon="-4.015253">
        <ele>310.746428</ele>
        <time>2020-03-31T11:37:35.674Z</time>
      </trkpt>
      <trkpt lat="56.595647" lon="-4.015289">
        <ele>309.310665</ele>
        <time>2020-03-31T11:37:39.328Z</time>
      </trkpt>
      <trkpt lat="56.596622" lon="-4.014428">
        <ele>300.109371</ele>
        <time>2020-03-31T11:38:03.418Z</time>
      </trkpt>
      <trkpt lat="56.598214" lon="-4.014120">
        <ele>287.214231</ele>
        <time>2020-03-31T11:38:39.240Z</time>
      </trkpt>
      <trkpt lat="56.598267" lon="-4.014103">
        <ele>286.781195</ele>
        <time>2020-03-31T11:38:40.349Z</time>
      </trkpt>
      <trkpt lat="56.598609" lon="-4.013995">
        <ele>283.999652</ele>
        <time>2020-03-31T11:38:48.094Z</time>
      </trkpt>
      <trkpt lat="56.599657" lon="-4.013901">
        <ele>275.626749</ele>
        <time>2020-03-31T11:39:11.464Z</time>
      </trkpt>
      <trkpt lat="56.600247" lon="-4.014327">
        <ele>270.554242</ele>
        <time>2020-03-31T11:39:25.736Z</time>
      </trkpt>
      <trkpt lat="56.600471" lon="-4.014234">
        <ele>268.696174</ele>
        <time>2020-03-31T11:39:30.911Z</time>
      </trkpt>
      <trkpt lat="56.600718" lon="-4.013926">
        <ele>266.273550</ele>
        <time>2020-03-31T11:39:37.615Z</time>
      </trkpt>
      <trkpt lat="56.601057" lon="-4.013285">
        <ele>262.316774</ele>
        <time>2020-03-31T11:39:48.579Z</time>
      </trkpt>
      <trkpt lat="56.600703" lon="-4.014956">
        <ele>253.878633</ele>
        <time>2020-03-31T11:40:10.512Z</time>
      </trkpt>
      <trkpt lat="56.600379" lon="-4.015711">
        <ele>248.682924</ele>
        <time>2020-03-31T11:40:21.903Z</time>
      </trkpt>
      <trkpt lat="56.599574" lon="-4.016075">
        <ele>240.503882</ele>
        <time>2020-03-31T11:40:39.685Z</time>
      </trkpt>
      <trkpt lat="56.599262" lon="-4.016728">
        <ele>235.365960</ele>
        <time>2020-03-31T11:40:49.809Z</time>
      </trkpt>
      <trkpt lat="56.598942" lon="-4.017948">
        <ele>226.919977</ele>
        <time>2020-03-31T11:41:05.443Z</time>
      </trkpt>
      <trkpt lat="56.598939" lon="-4.018544">
        <ele>223.194947</ele>
        <time>2020-03-31T11:41:12.312Z</time>
      </trkpt>
      <trkpt lat="56.598932" lon="-4.019270">
        <ele>218.656904</ele>
        <time>2020-03-31T11:41:20.804Z</time>
      </trkpt>
      <trkpt lat="56.598900" lon="-4.019449">
        <ele>217.551791</ele>
        <time>2020-03-31T11:41:22.977Z</time>
      </trkpt>
      <trkpt lat="56.598695" lon="-4.020261">
        <ele>212.437128</ele>
        <time>2020-03-31T11:41:33.522Z</time>
      </trkpt>
      <trkpt lat="56.598686" lon="-4.020641">
        <ele>210.259433</ele>
        <time>2020-03-31T11:41:37.982Z</time>
      </trkpt>
      <trkpt lat="56.598803" lon="-4.021363">
        <ele>205.950260</ele>
        <time>2020-03-31T11:41:46.885Z</time>
      </trkpt>
      <trkpt lat="56.598752" lon="-4.021830">
        <ele>203.224362</ele>
        <time>2020-03-31T11:41:52.636Z</time>
      </trkpt>
      <trkpt lat="56.598623" lon="-4.022128">
        <ele>201.053841</ele>
        <time>2020-03-31T11:41:57.109Z</time>
      </trkpt>
      <trkpt lat="56.598157" lon="-4.022855">
        <ele>194.532376</ele>
        <time>2020-03-31T11:42:10.276Z</time>
      </trkpt>
      <trkpt lat="56.598086" lon="-4.022922">
        <ele>193.677957</ele>
        <time>2020-03-31T11:42:11.972Z</time>
      </trkpt>
      <trkpt lat="56.597876" lon="-4.023600">
        <ele>189.104481</ele>
        <time>2020-03-31T11:42:21.063Z</time>
      </trkpt>
      <trkpt lat="56.597894" lon="-4.023831">
        <ele>187.732912</ele>
        <time>2020-03-31T11:42:23.862Z</time>
      </trkpt>
      <trkpt lat="56.597982" lon="-4.023959">
        <ele>186.529002</ele>
        <time>2020-03-31T11:42:26.356Z</time>
      </trkpt>
      <trkpt lat="56.598069" lon="-4.024067">
        <ele>185.403698</ele>
        <time>2020-03-31T11:42:28.495Z</time>
      </trkpt>
      <trkpt lat="56.598366" lon="-4.024434">
        <ele>181.567746</ele>
        <time>2020-03-31T11:42:36.147Z</time>
      </trkpt>
      <trkpt lat="56.598392" lon="-4.024644">
        <ele>180.298979</ele>
        <time>2020-03-31T11:42:38.728Z</time>
      </trkpt>
      <trkpt lat="56.597401" lon="-4.026817">
        <ele>163.207825</ele>
        <time>2020-03-31T11:43:11.386Z</time>
      </trkpt>
      <trkpt lat="56.597395" lon="-4.027185">
        <ele>160.977891</ele>
        <time>2020-03-31T11:43:16.120Z</time>
      </trkpt>
      <trkpt lat="56.597434" lon="-4.027259">
        <ele>160.432113</ele>
        <time>2020-03-31T11:43:17.262Z</time>
      </trkpt>
      <trkpt lat="56.597506" lon="-4.027396">
        <ele>159.605749</ele>
        <time>2020-03-31T11:43:19.457Z</time>
      </trkpt>
      <trkpt lat="56.597631" lon="-4.027555">
        <ele>158.396360</ele>
        <time>2020-03-31T11:43:23.103Z</time>
      </trkpt>
      <trkpt lat="56.597749" lon="-4.027473">
        <ele>157.395089</ele>
        <time>2020-03-31T11:43:25.762Z</time>
      </trkpt>
      <trkpt lat="56.597840" lon="-4.027401">
        <ele>156.608452</ele>
        <time>2020-03-31T11:43:27.375Z</time>
      </trkpt>
      <trkpt lat="56.598170" lon="-4.027102">
        <ele>153.685846</ele>
        <time>2020-03-31T11:43:33.578Z</time>
      </trkpt>
      <trkpt lat="56.598915" lon="-4.026156">
        <ele>146.482052</ele>
        <time>2020-03-31T11:43:49.267Z</time>
      </trkpt>
      <trkpt lat="56.599657" lon="-4.025279">
        <ele>143.991141</ele>
        <time>2020-03-31T11:44:06.764Z</time>
      </trkpt>
      <trkpt lat="56.599074" lon="-4.026330">
        <ele>141.748156</ele>
        <time>2020-03-31T11:44:20.763Z</time>
      </trkpt>
      <trkpt lat="56.598371" lon="-4.027493">
        <ele>140.754060</ele>
        <time>2020-03-31T11:44:38.927Z</time>
      </trkpt>
      <trkpt lat="56.595312" lon="-4.035105">
        <ele>135.248138</ele>
        <time>2020-03-31T11:46:13.200Z</time>
      </trkpt>
      <trkpt lat="56.594584" lon="-4.035985">
        <ele>133.074670</ele>
        <time>2020-03-31T11:46:27.067Z</time>
      </trkpt>
      <trkpt lat="56.596256" lon="-4.038252">
        <ele>123.969361</ele>
        <time>2020-03-31T11:47:05.790Z</time>
      </trkpt>
      <trkpt lat="56.596283" lon="-4.038508">
        <ele>123.502247</ele>
        <time>2020-03-31T11:47:08.556Z</time>
      </trkpt>
      <trkpt lat="56.596759" lon="-4.038826">
        <ele>121.851323</ele>
        <time>2020-03-31T11:47:18.226Z</time>
      </trkpt>
      <trkpt lat="56.596792" lon="-4.038812">
        <ele>121.741012</ele>
        <time>2020-03-31T11:47:20.614Z</time>
      </trkpt>
      <trkpt lat="56.596996" lon="-4.039200">
        <ele>120.779543</ele>
        <time>2020-03-31T11:47:41.179Z</time>
      </trkpt>
      <trkpt lat="56.597389" lon="-4.040357">
        <ele>118.343270</ele>
        <time>2020-03-31T11:48:33.340Z</time>
      </trkpt>
      <trkpt lat="56.597882" lon="-4.040312">
        <ele>117.927333</ele>
        <time>2020-03-31T11:49:07.753Z</time>
      </trkpt>
      <trkpt lat="56.598174" lon="-4.040122">
        <ele>117.788772</ele>
        <time>2020-03-31T11:49:29.336Z</time>
      </trkpt>
      <trkpt lat="56.598234" lon="-4.040213">
        <ele>117.753854</ele>
        <time>2020-03-31T11:49:34.791Z</time>
      </trkpt>
      <trkpt lat="56.598462" lon="-4.040559">
        <ele>117.621134</ele>
        <time>2020-03-31T11:49:55.470Z</time>
      </trkpt>
      <trkpt lat="56.598495" lon="-4.040613">
        <ele>117.601293</ele>
        <time>2020-03-31T11:49:58.568Z</time>
      </trkpt>
      <trkpt lat="56.598581" lon="-4.040536">
        <ele>117.558461</ele>
        <time>2020-03-31T11:50:05.236Z</time>
      </trkpt>
      <trkpt lat="56.598742" lon="-4.040062">
        <ele>117.421491</ele>
        <time>2020-03-31T11:50:26.630Z</time>
      </trkpt>
      <trkpt lat="56.598845" lon="-4.040065">
        <ele>117.375472</ele>
        <time>2020-03-31T11:50:33.813Z</time>
      </trkpt>
      <trkpt lat="56.598891" lon="-4.040067">
        <ele>117.354917</ele>
        <time>2020-03-31T11:50:37.017Z</time>
      </trkpt>
      <trkpt lat="56.598872" lon="-4.040627">
        <ele>117.631977</ele>
        <time>2020-03-31T11:50:44.199Z</time>
      </trkpt>
      <trkpt lat="56.598798" lon="-4.042359">
        <ele>119.045613</ele>
        <time>2020-03-31T11:51:11.127Z</time>
      </trkpt>
      <trkpt lat="56.598354" lon="-4.044781">
        <ele>120.679865</ele>
        <time>2020-03-31T11:51:48.727Z</time>
      </trkpt>
      <trkpt lat="56.597992" lon="-4.048361">
        <ele>122.144290</ele>
        <time>2020-03-31T11:52:31.335Z</time>
      </trkpt>
      <trkpt lat="56.597915" lon="-4.049542">
        <ele>122.501700</ele>
        <time>2020-03-31T11:52:46.573Z</time>
      </trkpt>
      <trkpt lat="56.597873" lon="-4.050047">
        <ele>122.620176</ele>
        <time>2020-03-31T11:52:53.136Z</time>
      </trkpt>
      <trkpt lat="56.597857" lon="-4.050234">
        <ele>122.646891</ele>
        <time>2020-03-31T11:52:55.343Z</time>
      </trkpt>
      <trkpt lat="56.597899" lon="-4.050935">
        <ele>122.746434</ele>
        <time>2020-03-31T11:53:03.866Z</time>
      </trkpt>
      <trkpt lat="56.597950" lon="-4.051399">
        <ele>122.813229</ele>
        <time>2020-03-31T11:53:09.320Z</time>
      </trkpt>
      <trkpt lat="56.598040" lon="-4.051342">
        <ele>122.837670</ele>
        <time>2020-03-31T11:53:11.554Z</time>
      </trkpt>
      <trkpt lat="56.598040" lon="-4.051342">
        <ele>122.837670</ele>
        <time>2020-03-31T11:53:11.603Z</time>
      </trkpt>
      <trkpt lat="56.598119" lon="-4.051294">
        <ele>122.859031</ele>
        <time>2020-03-31T11:53:13.639Z</time>
      </trkpt>
      <trkpt lat="56.598218" lon="-4.051224">
        <ele>122.886273</ele>
        <time>2020-03-31T11:53:16.292Z</time>
      </trkpt>
      <trkpt lat="56.598252" lon="-4.051063">
        <ele>122.910616</ele>
        <time>2020-03-31T11:53:18.742Z</time>
      </trkpt>
      <trkpt lat="56.598359" lon="-4.050948">
        <ele>122.942497</ele>
        <time>2020-03-31T11:53:21.849Z</time>
      </trkpt>
      <trkpt lat="56.598480" lon="-4.050263">
        <ele>123.044052</ele>
        <time>2020-03-31T11:53:32.444Z</time>
      </trkpt>
      <trkpt lat="56.598529" lon="-4.049986">
        <ele>122.989522</ele>
        <time>2020-03-31T11:53:36.557Z</time>
      </trkpt>
      <trkpt lat="56.598494" lon="-4.049831">
        <ele>122.948086</ele>
        <time>2020-03-31T11:53:38.809Z</time>
      </trkpt>
      <trkpt lat="56.598210" lon="-4.049644">
        <ele>122.812368</ele>
        <time>2020-03-31T11:53:46.617Z</time>
      </trkpt>
      <trkpt lat="56.597915" lon="-4.049542">
        <ele>122.677451</ele>
        <time>2020-03-31T11:53:53.789Z</time>
      </trkpt>
      <trkpt lat="56.597992" lon="-4.048361">
        <ele>122.383310</ele>
        <time>2020-03-31T11:54:04.981Z</time>
      </trkpt>
      <trkpt lat="56.598354" lon="-4.044781">
        <ele>120.983053</ele>
        <time>2020-03-31T11:54:40.483Z</time>
      </trkpt>
      <trkpt lat="56.598798" lon="-4.042359">
        <ele>119.326019</ele>
        <time>2020-03-31T11:55:03.372Z</time>
      </trkpt>
      <trkpt lat="56.598872" lon="-4.040627">
        <ele>118.490820</ele>
        <time>2020-03-31T11:55:19.496Z</time>
      </trkpt>
      <trkpt lat="56.598891" lon="-4.040067">
        <ele>118.337892</ele>
        <time>2020-03-31T11:55:24.991Z</time>
      </trkpt>
      <trkpt lat="56.598965" lon="-4.038350">
        <ele>117.868460</ele>
        <time>2020-03-31T11:55:42.772Z</time>
      </trkpt>
      <trkpt lat="56.600084" lon="-4.035323">
        <ele>117.576568</ele>
        <time>2020-03-31T11:56:21.057Z</time>
      </trkpt>
      <trkpt lat="56.600608" lon="-4.032433">
        <ele>116.921127</ele>
        <time>2020-03-31T11:56:50.872Z</time>
      </trkpt>
      <trkpt lat="56.601052" lon="-4.029988">
        <ele>116.962152</ele>
        <time>2020-03-31T11:57:18.078Z</time>
      </trkpt>
      <trkpt lat="56.602504" lon="-4.026576">
        <ele>117.589578</ele>
        <time>2020-03-31T11:58:08.482Z</time>
      </trkpt>
      <trkpt lat="56.603703" lon="-4.023760">
        <ele>117.224461</ele>
        <time>2020-03-31T11:58:46.797Z</time>
      </trkpt>
      <trkpt lat="56.604806" lon="-4.022318">
        <ele>115.562588</ele>
        <time>2020-03-31T11:59:08.768Z</time>
      </trkpt>
      <trkpt lat="56.604994" lon="-4.021805">
        <ele>114.978665</ele>
        <time>2020-03-31T11:59:13.980Z</time>
      </trkpt>
      <trkpt lat="56.605082" lon="-4.021567">
        <ele>114.679715</ele>
        <time>2020-03-31T11:59:16.292Z</time>
      </trkpt>
      <trkpt lat="56.605266" lon="-4.021064">
        <ele>114.049990</ele>
        <time>2020-03-31T11:59:21.361Z</time>
      </trkpt>
      <trkpt lat="56.607394" lon="-4.018098">
        <ele>109.522702</ele>
        <time>2020-03-31T12:00:03.807Z</time>
      </trkpt>
      <trkpt lat="56.607884" lon="-4.017757">
        <ele>109.117314</ele>
        <time>2020-03-31T12:00:12.996Z</time>
      </trkpt>
      <trkpt lat="56.608956" lon="-4.017479">
        <ele>108.697596</ele>
        <time>2020-03-31T12:00:32.887Z</time>
      </trkpt>
      <trkpt lat="56.609226" lon="-4.017329">
        <ele>108.588161</ele>
        <time>2020-03-31T12:00:38.322Z</time>
      </trkpt>
      <trkpt lat="56.609906" lon="-4.016863">
        <ele>108.610596</ele>
        <time>2020-03-31T12:00:52.542Z</time>
      </trkpt>
      <trkpt lat="56.610393" lon="-4.016299">
        <ele>108.659132</ele>
        <time>2020-03-31T12:01:04.031Z</time>
      </trkpt>
      <trkpt lat="56.611976" lon="-4.015233">
        <ele>108.793791</ele>
        <time>2020-03-31T12:01:37.871Z</time>
      </trkpt>
      <trkpt lat="56.612880" lon="-4.013417">
        <ele>108.496043</ele>
        <time>2020-03-31T12:02:03.470Z</time>
      </trkpt>
      <trkpt lat="56.613012" lon="-4.013060">
        <ele>108.370320</ele>
        <time>2020-03-31T12:02:07.826Z</time>
      </trkpt>
      <trkpt lat="56.613569" lon="-4.010521">
        <ele>107.142003</ele>
        <time>2020-03-31T12:02:33.400Z</time>
      </trkpt>
      <trkpt lat="56.613746" lon="-4.008591">
        <ele>105.803376</ele>
        <time>2020-03-31T12:02:50.963Z</time>
      </trkpt>
      <trkpt lat="56.613774" lon="-4.008286">
        <ele>105.606994</ele>
        <time>2020-03-31T12:02:53.698Z</time>
      </trkpt>
      <trkpt lat="56.613891" lon="-4.007595">
        <ele>105.230356</ele>
        <time>2020-03-31T12:03:00.264Z</time>
      </trkpt>
      <trkpt lat="56.614677" lon="-4.005212">
        <ele>103.843685</ele>
        <time>2020-03-31T12:03:26.665Z</time>
      </trkpt>
      <trkpt lat="56.614920" lon="-4.004613">
        <ele>103.594721</ele>
        <time>2020-03-31T12:03:33.888Z</time>
      </trkpt>
      <trkpt lat="56.615852" lon="-4.002279">
        <ele>103.036787</ele>
        <time>2020-03-31T12:04:02.076Z</time>
      </trkpt>
      <trkpt lat="56.615949" lon="-4.002100">
        <ele>103.101970</ele>
        <time>2020-03-31T12:04:04.729Z</time>
      </trkpt>
      <trkpt lat="56.616186" lon="-4.001775">
        <ele>103.241964</ele>
        <time>2020-03-31T12:04:10.548Z</time>
      </trkpt>
      <trkpt lat="56.617259" lon="-4.000212">
        <ele>104.123596</ele>
        <time>2020-03-31T12:04:44.555Z</time>
      </trkpt>
      <trkpt lat="56.617715" lon="-4.000050">
        <ele>104.621635</ele>
        <time>2020-03-31T12:04:56.833Z</time>
      </trkpt>
      <trkpt lat="56.617809" lon="-3.999959">
        <ele>104.735797</ele>
        <time>2020-03-31T12:05:00.164Z</time>
      </trkpt>
      <trkpt lat="56.617896" lon="-3.999630">
        <ele>104.951082</ele>
        <time>2020-03-31T12:05:04.760Z</time>
      </trkpt>
      <trkpt lat="56.617910" lon="-3.999524">
        <ele>105.015375</ele>
        <time>2020-03-31T12:05:06.281Z</time>
      </trkpt>
      <trkpt lat="56.617949" lon="-3.999272">
        <ele>105.169767</ele>
        <time>2020-03-31T12:05:10.189Z</time>
      </trkpt>
      <trkpt lat="56.618029" lon="-3.998684">
        <ele>105.527004</ele>
        <time>2020-03-31T12:05:18.119Z</time>
      </trkpt>
      <trkpt lat="56.617820" lon="-3.994564">
        <ele>105.684270</ele>
        <time>2020-03-31T12:06:02.152Z</time>
      </trkpt>
      <trkpt lat="56.617846" lon="-3.994365">
        <ele>105.641446</ele>
        <time>2020-03-31T12:06:03.960Z</time>
      </trkpt>
      <trkpt lat="56.617857" lon="-3.994280">
        <ele>105.623164</ele>
        <time>2020-03-31T12:06:05.326Z</time>
      </trkpt>
      <trkpt lat="56.618033" lon="-3.993778">
        <ele>105.498536</ele>
        <time>2020-03-31T12:06:11.129Z</time>
      </trkpt>
      <trkpt lat="56.618183" lon="-3.993541">
        <ele>105.422905</ele>
        <time>2020-03-31T12:06:15.274Z</time>
      </trkpt>
      <trkpt lat="56.617846" lon="-3.992583">
        <ele>105.184839</ele>
        <time>2020-03-31T12:06:26.390Z</time>
      </trkpt>
      <trkpt lat="56.617368" lon="-3.991299">
        <ele>104.294775</ele>
        <time>2020-03-31T12:06:41.064Z</time>
      </trkpt>
      <trkpt lat="56.616764" lon="-3.989638">
        <ele>103.048176</ele>
        <time>2020-03-31T12:06:58.897Z</time>
      </trkpt>
      <trkpt lat="56.616360" lon="-3.988452">
        <ele>102.230909</ele>
        <time>2020-03-31T12:07:11.550Z</time>
      </trkpt>
      <trkpt lat="56.616331" lon="-3.988337">
        <ele>102.156790</ele>
        <time>2020-03-31T12:07:12.625Z</time>
      </trkpt>
      <trkpt lat="56.615324" lon="-3.984343">
        <ele>100.081361</ele>
        <time>2020-03-31T12:07:54.617Z</time>
      </trkpt>
      <trkpt lat="56.614641" lon="-3.981594">
        <ele>99.233976</ele>
        <time>2020-03-31T12:08:24.125Z</time>
      </trkpt>
      <trkpt lat="56.614606" lon="-3.981000">
        <ele>99.082309</ele>
        <time>2020-03-31T12:08:30.164Z</time>
      </trkpt>
      <trkpt lat="56.614632" lon="-3.979663">
        <ele>98.974093</ele>
        <time>2020-03-31T12:08:44.021Z</time>
      </trkpt>
      <trkpt lat="56.614568" lon="-3.979245">
        <ele>98.952505</ele>
        <time>2020-03-31T12:08:48.580Z</time>
      </trkpt>
      <trkpt lat="56.614461" lon="-3.978582">
        <ele>98.918126</ele>
        <time>2020-03-31T12:08:55.974Z</time>
      </trkpt>
      <trkpt lat="56.614180" lon="-3.978075">
        <ele>98.882321</ele>
        <time>2020-03-31T12:09:23.545Z</time>
      </trkpt>
      <trkpt lat="56.613116" lon="-3.975125">
        <ele>98.520622</ele>
        <time>2020-03-31T12:11:38.814Z</time>
      </trkpt>
      <trkpt lat="56.613158" lon="-3.974913">
        <ele>98.433249</ele>
        <time>2020-03-31T12:11:47.474Z</time>
      </trkpt>
      <trkpt lat="56.611869" lon="-3.972412">
        <ele>96.954317</ele>
        <time>2020-03-31T12:13:58.818Z</time>
      </trkpt>
      <trkpt lat="56.610391" lon="-3.970154">
        <ele>95.584537</ele>
        <time>2020-03-31T12:16:13.309Z</time>
      </trkpt>
      <trkpt lat="56.609499" lon="-3.969498">
        <ele>95.081052</ele>
        <time>2020-03-31T12:17:20.341Z</time>
      </trkpt>
      <trkpt lat="56.608647" lon="-3.968428">
        <ele>94.681875</ele>
        <time>2020-03-31T12:18:32.422Z</time>
      </trkpt>
      <trkpt lat="56.607920" lon="-3.966637">
        <ele>94.373904</ele>
        <time>2020-03-31T12:19:57.773Z</time>
      </trkpt>
      <trkpt lat="56.607736" lon="-3.966016">
        <ele>94.403060</ele>
        <time>2020-03-31T12:20:24.838Z</time>
      </trkpt>
      <trkpt lat="56.607275" lon="-3.965051">
        <ele>94.488836</ele>
        <time>2020-03-31T12:21:13.864Z</time>
      </trkpt>
      <trkpt lat="56.606992" lon="-3.963977">
        <ele>94.568768</ele>
        <time>2020-03-31T12:21:59.525Z</time>
      </trkpt>
      <trkpt lat="56.606829" lon="-3.962131">
        <ele>94.836302</ele>
        <time>2020-03-31T12:23:11.297Z</time>
      </trkpt>
      <trkpt lat="56.606840" lon="-3.960560">
        <ele>95.074052</ele>
        <time>2020-03-31T12:24:11.606Z</time>
      </trkpt>
      <trkpt lat="56.606689" lon="-3.959321">
        <ele>94.902132</ele>
        <time>2020-03-31T12:25:00.313Z</time>
      </trkpt>
      <trkpt lat="56.606664" lon="-3.958226">
        <ele>94.751171</ele>
        <time>2020-03-31T12:25:42.373Z</time>
      </trkpt>
      <trkpt lat="56.606757" lon="-3.957110">
        <ele>94.537330</ele>
        <time>2020-03-31T12:26:25.686Z</time>
      </trkpt>
      <trkpt lat="56.606894" lon="-3.956784">
        <ele>94.369860</ele>
        <time>2020-03-31T12:26:41.424Z</time>
      </trkpt>
      <trkpt lat="56.607235" lon="-3.954721">
        <ele>93.490378</ele>
        <time>2020-03-31T12:28:04.092Z</time>
      </trkpt>
      <trkpt lat="56.607981" lon="-3.953194">
        <ele>93.097915</ele>
        <time>2020-03-31T12:29:22.384Z</time>
      </trkpt>
      <trkpt lat="56.608084" lon="-3.953100">
        <ele>93.071877</ele>
        <time>2020-03-31T12:29:30.420Z</time>
      </trkpt>
      <trkpt lat="56.608084" lon="-3.953100">
        <ele>93.071877</ele>
        <time>2020-03-31T12:29:30.455Z</time>
      </trkpt>
      <trkpt lat="56.608145" lon="-3.953024">
        <ele>93.055168</ele>
        <time>2020-03-31T12:29:35.612Z</time>
      </trkpt>
      <trkpt lat="56.608435" lon="-3.952126">
        <ele>92.925718</ele>
        <time>2020-03-31T12:30:15.502Z</time>
      </trkpt>
      <trkpt lat="56.608720" lon="-3.951767">
        <ele>92.903668</ele>
        <time>2020-03-31T12:30:39.649Z</time>
      </trkpt>
      <trkpt lat="56.608891" lon="-3.951060">
        <ele>92.952207</ele>
        <time>2020-03-31T12:31:09.287Z</time>
      </trkpt>
      <trkpt lat="56.608964" lon="-3.949262">
        <ele>93.065522</ele>
        <time>2020-03-31T12:32:18.499Z</time>
      </trkpt>
      <trkpt lat="56.608928" lon="-3.948586">
        <ele>93.078898</ele>
        <time>2020-03-31T12:32:44.548Z</time>
      </trkpt>
      <trkpt lat="56.608949" lon="-3.946853">
        <ele>93.010729</ele>
        <time>2020-03-31T12:33:51.071Z</time>
      </trkpt>
      <trkpt lat="56.608739" lon="-3.945127">
        <ele>93.137872</ele>
        <time>2020-03-31T12:34:58.903Z</time>
      </trkpt>
      <trkpt lat="56.608722" lon="-3.943518">
        <ele>93.683456</ele>
        <time>2020-03-31T12:36:00.660Z</time>
      </trkpt>
      <trkpt lat="56.608497" lon="-3.942036">
        <ele>94.230395</ele>
        <time>2020-03-31T12:36:59.680Z</time>
      </trkpt>
      <trkpt lat="56.608461" lon="-3.941141">
        <ele>94.592629</ele>
        <time>2020-03-31T12:37:34.122Z</time>
      </trkpt>
      <trkpt lat="56.608577" lon="-3.940174">
        <ele>94.992127</ele>
        <time>2020-03-31T12:38:12.103Z</time>
      </trkpt>
      <trkpt lat="56.609066" lon="-3.937749">
        <ele>95.197873</ele>
        <time>2020-03-31T12:39:51.231Z</time>
      </trkpt>
      <trkpt lat="56.609185" lon="-3.936676">
        <ele>95.067231</ele>
        <time>2020-03-31T12:40:33.203Z</time>
      </trkpt>
      <trkpt lat="56.609745" lon="-3.933444">
        <ele>94.314387</ele>
        <time>2020-03-31T12:42:43.242Z</time>
      </trkpt>
      <trkpt lat="56.609983" lon="-3.930363">
        <ele>94.891229</ele>
        <time>2020-03-31T12:44:42.636Z</time>
      </trkpt>
      <trkpt lat="56.610270" lon="-3.928518">
        <ele>95.375644</ele>
        <time>2020-03-31T12:45:56.207Z</time>
      </trkpt>
      <trkpt lat="56.610369" lon="-3.928137">
        <ele>95.480936</ele>
        <time>2020-03-31T12:46:12.383Z</time>
      </trkpt>
      <trkpt lat="56.610413" lon="-3.927422">
        <ele>95.660730</ele>
        <time>2020-03-31T12:46:39.989Z</time>
      </trkpt>
      <trkpt lat="56.610695" lon="-3.926284">
        <ele>95.592408</ele>
        <time>2020-03-31T12:47:27.875Z</time>
      </trkpt>
      <trkpt lat="56.610771" lon="-3.926068">
        <ele>95.428301</ele>
        <time>2020-03-31T12:47:37.712Z</time>
      </trkpt>
      <trkpt lat="56.611012" lon="-3.925444">
        <ele>94.940324</ele>
        <time>2020-03-31T12:48:06.963Z</time>
      </trkpt>
      <trkpt lat="56.611717" lon="-3.923908">
        <ele>93.620527</ele>
        <time>2020-03-31T12:49:23.663Z</time>
      </trkpt>
      <trkpt lat="56.613280" lon="-3.920504">
        <ele>90.172205</ele>
        <time>2020-03-31T12:52:13.697Z</time>
      </trkpt>
      <trkpt lat="56.613453" lon="-3.920674">
        <ele>89.963921</ele>
        <time>2020-03-31T12:52:27.399Z</time>
      </trkpt>
      <trkpt lat="56.613700" lon="-3.919949">
        <ele>89.466994</ele>
        <time>2020-03-31T12:53:00.092Z</time>
      </trkpt>
      <trkpt lat="56.613690" lon="-3.919743">
        <ele>89.346478</ele>
        <time>2020-03-31T12:53:07.992Z</time>
      </trkpt>
      <trkpt lat="56.613799" lon="-3.919521">
        <ele>89.173092</ele>
        <time>2020-03-31T12:53:19.406Z</time>
      </trkpt>
      <trkpt lat="56.614121" lon="-3.918695">
        <ele>88.952079</ele>
        <time>2020-03-31T12:53:58.253Z</time>
      </trkpt>
      <trkpt lat="56.614783" lon="-3.917689">
        <ele>88.760731</ele>
        <time>2020-03-31T12:54:58.366Z</time>
      </trkpt>
      <trkpt lat="56.615940" lon="-3.914746">
        <ele>88.397797</ele>
        <time>2020-03-31T12:57:17.032Z</time>
      </trkpt>
      <trkpt lat="56.616188" lon="-3.913941">
        <ele>88.302920</ele>
        <time>2020-03-31T12:57:52.435Z</time>
      </trkpt>
      <trkpt lat="56.616325" lon="-3.913230">
        <ele>88.214616</ele>
        <time>2020-03-31T12:58:21.314Z</time>
      </trkpt>
      <trkpt lat="56.616358" lon="-3.913095">
        <ele>88.197300</ele>
        <time>2020-03-31T12:58:27.016Z</time>
      </trkpt>
      <trkpt lat="56.616567" lon="-3.912088">
        <ele>88.071145</ele>
        <time>2020-03-31T12:59:08.311Z</time>
      </trkpt>
      <trkpt lat="56.616639" lon="-3.910985">
        <ele>88.032770</ele>
        <time>2020-03-31T12:59:50.896Z</time>
      </trkpt>
      <trkpt lat="56.616426" lon="-3.908402">
        <ele>88.987235</ele>
        <time>2020-03-31T13:01:31.119Z</time>
      </trkpt>
      <trkpt lat="56.616083" lon="-3.906733">
        <ele>90.246718</ele>
        <time>2020-03-31T13:02:39.502Z</time>
      </trkpt>
      <trkpt lat="56.616052" lon="-3.906583">
        <ele>90.379415</ele>
        <time>2020-03-31T13:02:45.640Z</time>
      </trkpt>
      <trkpt lat="56.616052" lon="-3.906583">
        <ele>90.379415</ele>
        <time>2020-03-31T13:02:45.664Z</time>
      </trkpt>
      <trkpt lat="56.615900" lon="-3.905643">
        <ele>91.190806</ele>
        <time>2020-03-31T13:03:23.237Z</time>
      </trkpt>
      <trkpt lat="56.615873" lon="-3.904714">
        <ele>91.914091</ele>
        <time>2020-03-31T13:03:58.943Z</time>
      </trkpt>
      <trkpt lat="56.616303" lon="-3.902486">
        <ele>92.912582</ele>
        <time>2020-03-31T13:05:29.550Z</time>
      </trkpt>
      <trkpt lat="56.616316" lon="-3.902051">
        <ele>93.096813</ele>
        <time>2020-03-31T13:05:46.272Z</time>
      </trkpt>
      <trkpt lat="56.616523" lon="-3.899085">
        <ele>91.938799</ele>
        <time>2020-03-31T13:07:40.973Z</time>
      </trkpt>
      <trkpt lat="56.616558" lon="-3.898124">
        <ele>91.467710</ele>
        <time>2020-03-31T13:08:17.948Z</time>
      </trkpt>
      <trkpt lat="56.616671" lon="-3.897190">
        <ele>91.014018</ele>
        <time>2020-03-31T13:08:54.636Z</time>
      </trkpt>
      <trkpt lat="56.616612" lon="-3.896021">
        <ele>90.457095</ele>
        <time>2020-03-31T13:09:39.697Z</time>
      </trkpt>
      <trkpt lat="56.616682" lon="-3.894544">
        <ele>90.136058</ele>
        <time>2020-03-31T13:10:36.571Z</time>
      </trkpt>
      <trkpt lat="56.616774" lon="-3.892381">
        <ele>90.340670</ele>
        <time>2020-03-31T13:11:59.814Z</time>
      </trkpt>
      <trkpt lat="56.616805" lon="-3.891668">
        <ele>90.323567</ele>
        <time>2020-03-31T13:12:27.241Z</time>
      </trkpt>
      <trkpt lat="56.617116" lon="-3.890386">
        <ele>90.044305</ele>
        <time>2020-03-31T13:13:21.022Z</time>
      </trkpt>
      <trkpt lat="56.617259" lon="-3.890261">
        <ele>89.986824</ele>
        <time>2020-03-31T13:13:32.033Z</time>
      </trkpt>
      <trkpt lat="56.617444" lon="-3.889663">
        <ele>89.850083</ele>
        <time>2020-03-31T13:13:58.360Z</time>
      </trkpt>
      <trkpt lat="56.617842" lon="-3.887201">
        <ele>88.845136</ele>
        <time>2020-03-31T13:15:36.806Z</time>
      </trkpt>
      <trkpt lat="56.617927" lon="-3.883994">
        <ele>87.641627</ele>
        <time>2020-03-31T13:17:40.001Z</time>
      </trkpt>
      <trkpt lat="56.618040" lon="-3.882826">
        <ele>87.259220</ele>
        <time>2020-03-31T13:18:25.523Z</time>
      </trkpt>
      <trkpt lat="56.618107" lon="-3.882034">
        <ele>87.133684</ele>
        <time>2020-03-31T13:18:56.255Z</time>
      </trkpt>
      <trkpt lat="56.618158" lon="-3.881425">
        <ele>87.066897</ele>
        <time>2020-03-31T13:19:19.904Z</time>
      </trkpt>
      <trkpt lat="56.618459" lon="-3.881616">
        <ele>87.004076</ele>
        <time>2020-03-31T13:19:42.072Z</time>
      </trkpt>
      <trkpt lat="56.618620" lon="-3.880486">
        <ele>86.877524</ele>
        <time>2020-03-31T13:20:26.835Z</time>
      </trkpt>
      <trkpt lat="56.618690" lon="-3.879571">
        <ele>86.912262</ele>
        <time>2020-03-31T13:21:02.275Z</time>
      </trkpt>
      <trkpt lat="56.618868" lon="-3.878992">
        <ele>86.980536</ele>
        <time>2020-03-31T13:21:27.748Z</time>
      </trkpt>
      <trkpt lat="56.618933" lon="-3.878402">
        <ele>87.042475</ele>
        <time>2020-03-31T13:21:50.816Z</time>
      </trkpt>
      <trkpt lat="56.618993" lon="-3.877021">
        <ele>87.182967</ele>
        <time>2020-03-31T13:22:43.985Z</time>
      </trkpt>
      <trkpt lat="56.619044" lon="-3.876661">
        <ele>87.180963</ele>
        <time>2020-03-31T13:22:58.243Z</time>
      </trkpt>
      <trkpt lat="56.619135" lon="-3.876642">
        <ele>87.180066</ele>
        <time>2020-03-31T13:23:04.611Z</time>
      </trkpt>
      <trkpt lat="56.619430" lon="-3.876063">
        <ele>87.175813</ele>
        <time>2020-03-31T13:23:34.855Z</time>
      </trkpt>
      <trkpt lat="56.619929" lon="-3.875643">
        <ele>87.170426</ele>
        <time>2020-03-31T13:24:13.153Z</time>
      </trkpt>
      <trkpt lat="56.620543" lon="-3.874418">
        <ele>87.493195</ele>
        <time>2020-03-31T13:25:16.669Z</time>
      </trkpt>
      <trkpt lat="56.621104" lon="-3.874282">
        <ele>87.952331</ele>
        <time>2020-03-31T13:25:56.062Z</time>
      </trkpt>
      <trkpt lat="56.621393" lon="-3.874319">
        <ele>88.187360</ele>
        <time>2020-03-31T13:26:16.245Z</time>
      </trkpt>
      <trkpt lat="56.621464" lon="-3.874589">
        <ele>88.320924</ele>
        <time>2020-03-31T13:26:27.718Z</time>
      </trkpt>
      <trkpt lat="56.621529" lon="-3.874678">
        <ele>88.386942</ele>
        <time>2020-03-31T13:26:33.379Z</time>
      </trkpt>
      <trkpt lat="56.621525" lon="-3.874644">
        <ele>88.402460</ele>
        <time>2020-03-31T13:26:33.954Z</time>
      </trkpt>
      <trkpt lat="56.621513" lon="-3.874532">
        <ele>88.453386</ele>
        <time>2020-03-31T13:26:35.833Z</time>
      </trkpt>
      <trkpt lat="56.621495" lon="-3.874366">
        <ele>88.528901</ele>
        <time>2020-03-31T13:26:38.632Z</time>
      </trkpt>
      <trkpt lat="56.621323" lon="-3.872866">
        <ele>90.971256</ele>
        <time>2020-03-31T13:27:04.871Z</time>
      </trkpt>
      <trkpt lat="56.621313" lon="-3.872792">
        <ele>91.106944</ele>
        <time>2020-03-31T13:27:06.002Z</time>
      </trkpt>
      <trkpt lat="56.621309" lon="-3.872770">
        <ele>91.148203</ele>
        <time>2020-03-31T13:27:06.388Z</time>
      </trkpt>
      <trkpt lat="56.621259" lon="-3.872519">
        <ele>91.623552</ele>
        <time>2020-03-31T13:27:11.719Z</time>
      </trkpt>
      <trkpt lat="56.621172" lon="-3.872222">
        <ele>92.222709</ele>
        <time>2020-03-31T13:27:18.792Z</time>
      </trkpt>
      <trkpt lat="56.621163" lon="-3.872204">
        <ele>92.266021</ele>
        <time>2020-03-31T13:27:19.212Z</time>
      </trkpt>
      <trkpt lat="56.620660" lon="-3.871172">
        <ele>94.775318</ele>
        <time>2020-03-31T13:27:50.153Z</time>
      </trkpt>
      <trkpt lat="56.620336" lon="-3.870521">
        <ele>96.646517</ele>
        <time>2020-03-31T13:28:09.315Z</time>
      </trkpt>
      <trkpt lat="56.620151" lon="-3.870160">
        <ele>97.698128</ele>
        <time>2020-03-31T13:28:20.765Z</time>
      </trkpt>
      <trkpt lat="56.619569" lon="-3.869013">
        <ele>101.024148</ele>
        <time>2020-03-31T13:28:52.979Z</time>
      </trkpt>
      <trkpt lat="56.619371" lon="-3.868755">
        <ele>101.678588</ele>
        <time>2020-03-31T13:29:01.096Z</time>
      </trkpt>
      <trkpt lat="56.619235" lon="-3.868637">
        <ele>101.957046</ele>
        <time>2020-03-31T13:29:06.352Z</time>
      </trkpt>
      <trkpt lat="56.618996" lon="-3.868430">
        <ele>102.446235</ele>
        <time>2020-03-31T13:29:15.959Z</time>
      </trkpt>
      <trkpt lat="56.619093" lon="-3.867846">
        <ele>103.066413</ele>
        <time>2020-03-31T13:29:27.388Z</time>
      </trkpt>
      <trkpt lat="56.619111" lon="-3.867614">
        <ele>103.304606</ele>
        <time>2020-03-31T13:29:31.424Z</time>
      </trkpt>
      <trkpt lat="56.619114" lon="-3.867427">
        <ele>103.494797</ele>
        <time>2020-03-31T13:29:33.978Z</time>
      </trkpt>
      <trkpt lat="56.619112" lon="-3.867246">
        <ele>103.678844</ele>
        <time>2020-03-31T13:29:36.753Z</time>
      </trkpt>
      <trkpt lat="56.619102" lon="-3.867010">
        <ele>103.919480</ele>
        <time>2020-03-31T13:29:40.388Z</time>
      </trkpt>
      <trkpt lat="56.619045" lon="-3.866321">
        <ele>104.627815</ele>
        <time>2020-03-31T13:29:47.662Z</time>
      </trkpt>
      <trkpt lat="56.619043" lon="-3.866046">
        <ele>104.738109</ele>
        <time>2020-03-31T13:29:50.179Z</time>
      </trkpt>
      <trkpt lat="56.619053" lon="-3.865800">
        <ele>104.738109</ele>
        <time>2020-03-31T13:29:53.205Z</time>
      </trkpt>
      <trkpt lat="56.619056" lon="-3.865743">
        <ele>104.738109</ele>
        <time>2020-03-31T13:29:53.809Z</time>
      </trkpt>
      <trkpt lat="56.619111" lon="-3.865413">
        <ele>104.738109</ele>
        <time>2020-03-31T13:29:56.730Z</time>
      </trkpt>
      <trkpt lat="56.619182" lon="-3.865102">
        <ele>104.738109</ele>
        <time>2020-03-31T13:30:00.363Z</time>
      </trkpt>
      <trkpt lat="56.619208" lon="-3.865063">
        <ele>104.738109</ele>
        <time>2020-03-31T13:30:00.821Z</time>
      </trkpt>
      <trkpt lat="56.619370" lon="-3.864961">
        <ele>104.738109</ele>
        <time>2020-03-31T13:30:03.669Z</time>
      </trkpt>
      <trkpt lat="56.619493" lon="-3.864884">
        <ele>104.738109</ele>
        <time>2020-03-31T13:30:06.199Z</time>
      </trkpt>
      <trkpt lat="56.619678" lon="-3.864767">
        <ele>104.738109</ele>
        <time>2020-03-31T13:30:09.461Z</time>
      </trkpt>
      <trkpt lat="56.619678" lon="-3.864767">
        <ele>104.738109</ele>
        <time>2020-03-31T13:30:09.470Z</time>
      </trkpt>
    </trkseg>
  </trk>
</gpx>